<?xml version='1.0' encoding='UTF-8'?><gpx version="1.1" creator="JPX - https://github.com/jenetics/jpx" xmlns="http://www.topografix.com/GPX/1/1"><trk><trkseg><trkpt lat="42.18365768503988" lon="14.18107516412238"><ele>645.0</ele><time>2026-05-01T10:26:28.001Z</time></trkpt><trkpt lat="42.183670493976486" lon="14.181168888873103"><ele>645.0</ele><time>2026-05-01T10:26:35.001Z</time></trkpt><trkpt lat="42.18366793693761" lon="14.181261371929073"><ele>645.0</ele><time>2026-05-01T10:26:42.001Z</time></trkpt><trkpt lat="42.183605735204615" lon="14.18122750830478"><ele>645.0</ele><time>2026-05-01T10:27:10.001Z</time></trkpt><trkpt lat="42.18353862237187" lon="14.181232908382237"><ele>645.0</ele><time>2026-05-01T10:27:19.001Z</time></trkpt><trkpt lat="42.18349362100143" lon="14.181294322032358"><ele>645.0</ele><time>2026-05-01T10:27:30.001Z</time></trkpt><trkpt lat="42.18347466982776" lon="14.181381603376034"><ele>645.0</ele><time>2026-05-01T10:27:40.001Z</time></trkpt><trkpt lat="42.18346276368962" lon="14.181465866537579"><ele>645.0</ele><time>2026-05-01T10:30:04.001Z</time></trkpt><trkpt lat="42.183515113834666" lon="14.181399226000028"><ele>645.0</ele><time>2026-05-01T11:04:13Z</time></trkpt><trkpt lat="42.18352176065477" lon="14.18131329534443"><ele>645.0</ele><time>2026-05-01T11:04:34Z</time></trkpt><trkpt lat="42.18354615804903" lon="14.18142694788606"><ele>645.0</ele><time>2026-05-01T11:04:39Z</time></trkpt><trkpt lat="42.18342811349809" lon="14.181451347820493"><ele>645.0</ele><time>2026-05-01T11:04:44Z</time></trkpt><trkpt lat="42.18340240203284" lon="14.181372566728538"><ele>645.0</ele><time>2026-05-01T11:04:48Z</time></trkpt><trkpt lat="42.18346728926778" lon="14.181293000972547"><ele>645.0</ele><time>2026-05-01T11:04:51Z</time></trkpt><trkpt lat="42.183516876403644" lon="14.181212481211162"><ele>645.0</ele><time>2026-05-01T11:04:57Z</time></trkpt><trkpt lat="42.18351054343709" lon="14.181110145138991"><ele>645.0</ele><time>2026-05-01T11:05:07Z</time></trkpt><trkpt lat="42.18353268746082" lon="14.18101715976289"><ele>645.0</ele><time>2026-05-01T11:05:13Z</time></trkpt><trkpt lat="42.18355107917505" lon="14.180930784854501"><ele>645.0</ele><time>2026-05-01T11:05:19Z</time></trkpt><trkpt lat="42.18359127614089" lon="14.180864546273614"><ele>645.0</ele><time>2026-05-01T11:05:27Z</time></trkpt><trkpt lat="42.18362127582937" lon="14.180902824480915"><ele>645.0</ele><time>2026-05-01T11:15:10Z</time></trkpt><trkpt lat="42.18370446029727" lon="14.180799132052597"><ele>645.0</ele><time>2026-05-01T11:15:14Z</time></trkpt><trkpt lat="42.18376178971042" lon="14.18073007262548"><ele>645.0</ele><time>2026-05-01T11:15:15Z</time></trkpt><trkpt lat="42.183817809551094" lon="14.180673862018494"><ele>645.0</ele><time>2026-05-01T11:15:16Z</time></trkpt><trkpt lat="42.183890962906865" lon="14.180686098726882"><ele>645.0</ele><time>2026-05-01T11:15:18Z</time></trkpt><trkpt lat="42.18390956299987" lon="14.180779868733026"><ele>645.0</ele><time>2026-05-01T11:15:20Z</time></trkpt><trkpt lat="42.18391234437132" lon="14.180887196698606"><ele>645.0</ele><time>2026-05-01T11:16:22Z</time></trkpt><trkpt lat="42.183922714231095" lon="14.181008219871638"><ele>645.0</ele><time>2026-05-01T11:16:23Z</time></trkpt><trkpt lat="42.18392424736482" lon="14.181155625392021"><ele>645.0</ele><time>2026-05-01T11:16:24Z</time></trkpt><trkpt lat="42.18390644133352" lon="14.181300514863642"><ele>645.0</ele><time>2026-05-01T11:16:25Z</time></trkpt><trkpt lat="42.18385844473868" lon="14.181442279450607"><ele>645.0</ele><time>2026-05-01T11:16:26Z</time></trkpt><trkpt lat="42.18378433367426" lon="14.181596727469149"><ele>644.6</ele><time>2026-05-01T11:16:27Z</time></trkpt><trkpt lat="42.183709205446476" lon="14.181744791824038"><ele>644.2</ele><time>2026-05-01T11:16:28Z</time></trkpt><trkpt lat="42.183652933910835" lon="14.18185734012772"><ele>643.8</ele><time>2026-05-01T11:16:29Z</time></trkpt><trkpt lat="42.18359787664848" lon="14.181950683773968"><ele>643.4</ele><time>2026-05-01T11:16:30Z</time></trkpt><trkpt lat="42.183543052125316" lon="14.182027491770262"><ele>643.0</ele><time>2026-05-01T11:16:31Z</time></trkpt><trkpt lat="42.18347906239047" lon="14.18207350263589"><ele>643.0</ele><time>2026-05-01T11:16:32Z</time></trkpt><trkpt lat="42.18339019963812" lon="14.182081291332803"><ele>643.0</ele><time>2026-05-01T11:16:34Z</time></trkpt><trkpt lat="42.18335167944256" lon="14.182228002221098"><ele>643.0</ele><time>2026-05-01T11:16:41Z</time></trkpt><trkpt lat="42.18340535698516" lon="14.182298715893445"><ele>643.0</ele><time>2026-05-01T11:16:42Z</time></trkpt><trkpt lat="42.18347039912" lon="14.18238269897627"><ele>643.0</ele><time>2026-05-01T11:16:43Z</time></trkpt><trkpt lat="42.18354422076444" lon="14.182488411834559"><ele>640.25</ele><time>2026-05-01T11:16:44Z</time></trkpt><trkpt lat="42.18361390003042" lon="14.182612465850966"><ele>637.5</ele><time>2026-05-01T11:16:45Z</time></trkpt><trkpt lat="42.18366914629286" lon="14.182741344772323"><ele>634.75</ele><time>2026-05-01T11:16:46Z</time></trkpt><trkpt lat="42.1837137972228" lon="14.182880002822841"><ele>632.0</ele><time>2026-05-01T11:16:47Z</time></trkpt><trkpt lat="42.18375151144866" lon="14.183048477965018"><ele>631.75</ele><time>2026-05-01T11:16:48Z</time></trkpt><trkpt lat="42.183777872741786" lon="14.183235610283598"><ele>631.5</ele><time>2026-05-01T11:16:49Z</time></trkpt><trkpt lat="42.18386049888028" lon="14.183356525952528"><ele>631.25</ele><time>2026-05-01T11:16:50Z</time></trkpt><trkpt lat="42.18394161749785" lon="14.183543285684113"><ele>631.0</ele><time>2026-05-01T11:16:51Z</time></trkpt><trkpt lat="42.18404233613621" lon="14.183752936628784"><ele>631.0</ele><time>2026-05-01T11:16:52Z</time></trkpt><trkpt lat="42.184150717418866" lon="14.183936580393484"><ele>631.0</ele><time>2026-05-01T11:16:53Z</time></trkpt><trkpt lat="42.18421966810574" lon="14.184158896754768"><ele>631.0</ele><time>2026-05-01T11:16:54Z</time></trkpt><trkpt lat="42.18429467021363" lon="14.184394003571168"><ele>628.0</ele><time>2026-05-01T11:16:55Z</time></trkpt><trkpt lat="42.18437025129592" lon="14.184607405335825"><ele>625.0</ele><time>2026-05-01T11:16:56Z</time></trkpt><trkpt lat="42.18444149359515" lon="14.184801649186946"><ele>622.0</ele><time>2026-05-01T11:16:57Z</time></trkpt><trkpt lat="42.18451575587531" lon="14.18500294670031"><ele>617.3333333333334</ele><time>2026-05-01T11:16:58Z</time></trkpt><trkpt lat="42.18459261759821" lon="14.185205407739875"><ele>612.6666666666666</ele><time>2026-05-01T11:16:59Z</time></trkpt><trkpt lat="42.18468543286623" lon="14.18538233683546"><ele>608.0</ele><time>2026-05-01T11:17:00Z</time></trkpt><trkpt lat="42.18476054081608" lon="14.185557772399449"><ele>608.6666666666666</ele><time>2026-05-01T11:17:01Z</time></trkpt><trkpt lat="42.184857269852" lon="14.185713861066299"><ele>609.3333333333334</ele><time>2026-05-01T11:17:02Z</time></trkpt><trkpt lat="42.18497249755447" lon="14.185870241267768"><ele>610.0</ele><time>2026-05-01T11:17:03Z</time></trkpt><trkpt lat="42.18509445505128" lon="14.186022566209322"><ele>610.0</ele><time>2026-05-01T11:17:04Z</time></trkpt><trkpt lat="42.1852118988738" lon="14.186170648196422"><ele>610.0</ele><time>2026-05-01T11:17:05Z</time></trkpt><trkpt lat="42.185320421027605" lon="14.186318803948408"><ele>610.0</ele><time>2026-05-01T11:17:06Z</time></trkpt><trkpt lat="42.18540471303453" lon="14.186490985493087"><ele>605.5</ele><time>2026-05-01T11:17:07Z</time></trkpt><trkpt lat="42.185481822379884" lon="14.186648465012581"><ele>601.0</ele><time>2026-05-01T11:17:08Z</time></trkpt><trkpt lat="42.18554621338384" lon="14.186820270978343"><ele>596.5</ele><time>2026-05-01T11:17:09Z</time></trkpt><trkpt lat="42.185608875829644" lon="14.186998018925145"><ele>592.0</ele><time>2026-05-01T11:17:10Z</time></trkpt><trkpt lat="42.1856689887389" lon="14.187176481889727"><ele>591.8000000000001</ele><time>2026-05-01T11:17:11Z</time></trkpt><trkpt lat="42.18573085615847" lon="14.187324771547525"><ele>591.6</ele><time>2026-05-01T11:17:12Z</time></trkpt><trkpt lat="42.18577014110951" lon="14.187453333590838"><ele>591.4000000000001</ele><time>2026-05-01T11:17:13Z</time></trkpt><trkpt lat="42.18579766905847" lon="14.187554167921059"><ele>591.2</ele><time>2026-05-01T11:17:14Z</time></trkpt><trkpt lat="42.18583231148547" lon="14.187674381549929"><ele>591.0</ele><time>2026-05-01T11:17:16Z</time></trkpt><trkpt lat="42.18585530643383" lon="14.187822349253835"><ele>591.0</ele><time>2026-05-01T11:17:18Z</time></trkpt><trkpt lat="42.185890293018524" lon="14.187957598390035"><ele>591.0</ele><time>2026-05-01T11:17:20Z</time></trkpt><trkpt lat="42.18579737891567" lon="14.187877543914599"><ele>591.0</ele><time>2026-05-01T11:17:25Z</time></trkpt><trkpt lat="42.185745066473956" lon="14.187733748944167"><ele>591.0</ele><time>2026-05-01T11:17:26Z</time></trkpt><trkpt lat="42.185686434270195" lon="14.187569055875576"><ele>591.3333333333334</ele><time>2026-05-01T11:17:27Z</time></trkpt><trkpt lat="42.18561267871209" lon="14.187384961271933"><ele>591.6666666666667</ele><time>2026-05-01T11:17:28Z</time></trkpt><trkpt lat="42.18552038626725" lon="14.187196361716554"><ele>592.0</ele><time>2026-05-01T11:17:29Z</time></trkpt><trkpt lat="42.18543774315099" lon="14.18704980895808"><ele>592.0</ele><time>2026-05-01T11:17:30Z</time></trkpt><trkpt lat="42.18534071276387" lon="14.186895315495118"><ele>592.0</ele><time>2026-05-01T11:17:31Z</time></trkpt><trkpt lat="42.1852577232529" lon="14.186774203054206"><ele>592.0</ele><time>2026-05-01T11:17:32Z</time></trkpt><trkpt lat="42.18518285730638" lon="14.186692792379805"><ele>592.0</ele><time>2026-05-01T11:17:33Z</time></trkpt><trkpt lat="42.18506744622327" lon="14.186605227464929"><ele>592.0</ele><time>2026-05-01T11:17:34Z</time></trkpt><trkpt lat="42.18494935556805" lon="14.186523569051518"><ele>592.0</ele><time>2026-05-01T11:17:35Z</time></trkpt><trkpt lat="42.18483528752563" lon="14.186456326310614"><ele>592.0</ele><time>2026-05-01T11:17:36Z</time></trkpt><trkpt lat="42.18474753822658" lon="14.186403946413497"><ele>592.0</ele><time>2026-05-01T11:17:37Z</time></trkpt><trkpt lat="42.18467818951897" lon="14.18639060515192"><ele>592.0</ele><time>2026-05-01T11:17:38Z</time></trkpt><trkpt lat="42.18459131668061" lon="14.186399399050801"><ele>592.0</ele><time>2026-05-01T11:17:39Z</time></trkpt><trkpt lat="42.18446509523552" lon="14.186424242943344"><ele>592.0</ele><time>2026-05-01T11:17:40Z</time></trkpt><trkpt lat="42.18434276989724" lon="14.186470819956346"><ele>592.0</ele><time>2026-05-01T11:17:41Z</time></trkpt><trkpt lat="42.18425104943676" lon="14.186500595285633"><ele>592.0</ele><time>2026-05-01T11:17:42Z</time></trkpt><trkpt lat="42.18415692708448" lon="14.186485668077912"><ele>592.0</ele><time>2026-05-01T11:17:43Z</time></trkpt><trkpt lat="42.18403681515195" lon="14.186458273884439"><ele>591.0</ele><time>2026-05-01T11:17:44Z</time></trkpt><trkpt lat="42.183896313976035" lon="14.186454891916053"><ele>590.0</ele><time>2026-05-01T11:17:45Z</time></trkpt><trkpt lat="42.18374833005893" lon="14.1864781215116"><ele>589.0</ele><time>2026-05-01T11:17:46Z</time></trkpt><trkpt lat="42.18361354532463" lon="14.186519639527607"><ele>588.0</ele><time>2026-05-01T11:17:47Z</time></trkpt><trkpt lat="42.183484190465094" lon="14.186572962646062"><ele>586.0</ele><time>2026-05-01T11:17:48Z</time></trkpt><trkpt lat="42.18332837830349" lon="14.186677156709209"><ele>584.0</ele><time>2026-05-01T11:17:49Z</time></trkpt><trkpt lat="42.18315328893987" lon="14.186794366339678"><ele>582.0</ele><time>2026-05-01T11:17:50Z</time></trkpt><trkpt lat="42.18300123884076" lon="14.18686554363045"><ele>582.0</ele><time>2026-05-01T11:17:51Z</time></trkpt><trkpt lat="42.18288668141154" lon="14.186915267888995"><ele>582.0</ele><time>2026-05-01T11:17:52Z</time></trkpt><trkpt lat="42.18274515202682" lon="14.186955282017093"><ele>582.0</ele><time>2026-05-01T11:17:53Z</time></trkpt><trkpt lat="42.18262575694815" lon="14.186993955936266"><ele>582.0</ele><time>2026-05-01T11:17:54Z</time></trkpt><trkpt lat="42.182555232228786" lon="14.18703989928195"><ele>582.0</ele><time>2026-05-01T11:17:55Z</time></trkpt><trkpt lat="42.18249081164274" lon="14.187062041077663"><ele>582.0</ele><time>2026-05-01T11:17:57Z</time></trkpt><trkpt lat="42.18257024329642" lon="14.187186998073075"><ele>582.0</ele><time>2026-05-01T11:17:59Z</time></trkpt><trkpt lat="42.18263291855627" lon="14.187244437553064"><ele>582.0</ele><time>2026-05-01T11:18:00Z</time></trkpt><trkpt lat="42.182718844164036" lon="14.187369773549557"><ele>582.0</ele><time>2026-05-01T11:18:01Z</time></trkpt><trkpt lat="42.18284792790371" lon="14.187555874407906"><ele>580.5</ele><time>2026-05-01T11:18:02Z</time></trkpt><trkpt lat="42.18303079424475" lon="14.187769730472267"><ele>579.0</ele><time>2026-05-01T11:18:03Z</time></trkpt><trkpt lat="42.18321692933005" lon="14.187969790640556"><ele>579.0</ele><time>2026-05-01T11:18:04Z</time></trkpt><trkpt lat="42.18334874561123" lon="14.188134050578252"><ele>579.0</ele><time>2026-05-01T11:18:05Z</time></trkpt><trkpt lat="42.18343837755476" lon="14.18834676219752"><ele>579.0</ele><time>2026-05-01T11:18:06Z</time></trkpt><trkpt lat="42.183565114763546" lon="14.188612328031931"><ele>577.0</ele><time>2026-05-01T11:18:07Z</time></trkpt><trkpt lat="42.183720886120874" lon="14.188916331908372"><ele>575.0</ele><time>2026-05-01T11:18:08Z</time></trkpt><trkpt lat="42.183824799076426" lon="14.189155152646515"><ele>573.0</ele><time>2026-05-01T11:18:09Z</time></trkpt><trkpt lat="42.18388440751245" lon="14.189361428548784"><ele>571.0</ele><time>2026-05-01T11:18:10Z</time></trkpt><trkpt lat="42.183930988355286" lon="14.18954992765382"><ele>569.0</ele><time>2026-05-01T11:18:11Z</time></trkpt><trkpt lat="42.183950854984154" lon="14.189780131340624"><ele>567.6666666666666</ele><time>2026-05-01T11:18:12Z</time></trkpt><trkpt lat="42.18394985487042" lon="14.190072043226614"><ele>566.3333333333334</ele><time>2026-05-01T11:18:13Z</time></trkpt><trkpt lat="42.18395512258672" lon="14.190381060961574"><ele>565.0</ele><time>2026-05-01T11:18:14Z</time></trkpt><trkpt lat="42.18397759720072" lon="14.190629745531094"><ele>563.5</ele><time>2026-05-01T11:18:15Z</time></trkpt><trkpt lat="42.183988753987464" lon="14.190829119463048"><ele>562.0</ele><time>2026-05-01T11:18:16Z</time></trkpt><trkpt lat="42.18400035486113" lon="14.191014768344944"><ele>560.5</ele><time>2026-05-01T11:18:17Z</time></trkpt><trkpt lat="42.1839916342342" lon="14.191193143715884"><ele>559.0</ele><time>2026-05-01T11:18:18Z</time></trkpt><trkpt lat="42.18398591605849" lon="14.191362797686766"><ele>559.0</ele><time>2026-05-01T11:18:19Z</time></trkpt><trkpt lat="42.18398245230823" lon="14.191500272185179"><ele>559.0</ele><time>2026-05-01T11:18:20Z</time></trkpt><trkpt lat="42.18397813729628" lon="14.191615608933391"><ele>559.0</ele><time>2026-05-01T11:18:21Z</time></trkpt><trkpt lat="42.183980851339534" lon="14.1917372944318"><ele>559.0</ele><time>2026-05-01T11:18:22Z</time></trkpt><trkpt lat="42.18399751066462" lon="14.19186838664992"><ele>559.0</ele><time>2026-05-01T11:18:23Z</time></trkpt><trkpt lat="42.18402488991472" lon="14.191991672318123"><ele>558.0</ele><time>2026-05-01T11:18:24Z</time></trkpt><trkpt lat="42.18407234477633" lon="14.192104748630623"><ele>557.0</ele><time>2026-05-01T11:18:25Z</time></trkpt><trkpt lat="42.18414674105555" lon="14.192239032354061"><ele>556.0</ele><time>2026-05-01T11:18:26Z</time></trkpt><trkpt lat="42.18420685491529" lon="14.192380366163125"><ele>555.0</ele><time>2026-05-01T11:18:27Z</time></trkpt><trkpt lat="42.18425689945588" lon="14.19251091269042"><ele>552.75</ele><time>2026-05-01T11:18:28Z</time></trkpt><trkpt lat="42.184302889024366" lon="14.19268735381815"><ele>550.5</ele><time>2026-05-01T11:18:29Z</time></trkpt><trkpt lat="42.18435350772077" lon="14.192863515886561"><ele>548.25</ele><time>2026-05-01T11:18:30Z</time></trkpt><trkpt lat="42.184373493733396" lon="14.1930060904078"><ele>546.0</ele><time>2026-05-01T11:18:31Z</time></trkpt><trkpt lat="42.18437464814899" lon="14.193131127088677"><ele>544.75</ele><time>2026-05-01T11:18:33Z</time></trkpt><trkpt lat="42.1842865737657" lon="14.193305499142514"><ele>543.5</ele><time>2026-05-01T11:18:34.998Z</time></trkpt><trkpt lat="42.18424148227551" lon="14.193438275209868"><ele>542.25</ele><time>2026-05-01T11:18:35.998Z</time></trkpt><trkpt lat="42.18419048451757" lon="14.1935564814927"><ele>541.0</ele><time>2026-05-01T11:18:36.998Z</time></trkpt><trkpt lat="42.184179456316386" lon="14.193675992760125"><ele>541.0</ele><time>2026-05-01T11:18:37.998Z</time></trkpt><trkpt lat="42.18416834380776" lon="14.193762334131632"><ele>541.0</ele><time>2026-05-01T11:18:38.998Z</time></trkpt><trkpt lat="42.184183301051455" lon="14.193878148474882"><ele>541.0</ele><time>2026-05-01T11:18:39.998Z</time></trkpt><trkpt lat="42.18422571293881" lon="14.1940248789833"><ele>541.0</ele><time>2026-05-01T11:18:40.998Z</time></trkpt><trkpt lat="42.18427625131723" lon="14.194166440309802"><ele>541.0</ele><time>2026-05-01T11:18:41.998Z</time></trkpt><trkpt lat="42.18430751792581" lon="14.19425421756405"><ele>541.0</ele><time>2026-05-01T11:18:42.998Z</time></trkpt><trkpt lat="42.18437738619971" lon="14.194308406577921"><ele>541.0</ele><time>2026-05-01T11:18:44.998Z</time></trkpt><trkpt lat="42.18430979749315" lon="14.194275990467352"><ele>541.0</ele><time>2026-05-01T11:19:11.999Z</time></trkpt><trkpt lat="42.18424929440112" lon="14.194050288258039"><ele>541.0</ele><time>2026-05-01T11:19:14.999Z</time></trkpt><trkpt lat="42.18421862620675" lon="14.193913855188244"><ele>541.0</ele><time>2026-05-01T11:19:16.999Z</time></trkpt><trkpt lat="42.184197091213676" lon="14.193801541888963"><ele>541.0</ele><time>2026-05-01T11:19:18.999Z</time></trkpt><trkpt lat="42.18418647364778" lon="14.193676974369911"><ele>541.0</ele><time>2026-05-01T11:19:20.999Z</time></trkpt><trkpt lat="42.18412221160982" lon="14.193782240805236"><ele>541.0</ele><time>2026-05-01T11:19:32.999Z</time></trkpt><trkpt lat="42.184106764675924" lon="14.193880958687535"><ele>541.0</ele><time>2026-05-01T11:19:33.999Z</time></trkpt><trkpt lat="42.18408742749517" lon="14.19408551618695"><ele>541.0</ele><time>2026-05-01T11:19:35.999Z</time></trkpt><trkpt lat="42.184082814656016" lon="14.194201045270795"><ele>540.2</ele><time>2026-05-01T11:19:36.999Z</time></trkpt><trkpt lat="42.18407636317878" lon="14.194339336044493"><ele>539.4000000000001</ele><time>2026-05-01T11:19:38.999Z</time></trkpt><trkpt lat="42.18412508994605" lon="14.194432719831548"><ele>538.6</ele><time>2026-05-01T11:19:40.999Z</time></trkpt><trkpt lat="42.18416217384667" lon="14.194507404196427"><ele>537.8000000000001</ele><time>2026-05-01T11:19:41.999Z</time></trkpt><trkpt lat="42.184226441326345" lon="14.194603364576176"><ele>537.0</ele><time>2026-05-01T11:19:43.999Z</time></trkpt><trkpt lat="42.18432089564161" lon="14.194691194820258"><ele>537.0</ele><time>2026-05-01T11:19:45.999Z</time></trkpt><trkpt lat="42.184234593940864" lon="14.19474027083766"><ele>537.0</ele><time>2026-05-01T11:19:49.999Z</time></trkpt><trkpt lat="42.18417269011168" lon="14.19467694282575"><ele>537.0</ele><time>2026-05-01T11:19:51.999Z</time></trkpt><trkpt lat="42.18413464850639" lon="14.19475590411663"><ele>537.0</ele><time>2026-05-01T11:19:53.999Z</time></trkpt><trkpt lat="42.184198380467436" lon="14.194814301731007"><ele>537.0</ele><time>2026-05-01T11:19:55.999Z</time></trkpt><trkpt lat="42.18428488982655" lon="14.19493375823676"><ele>537.0</ele><time>2026-05-01T11:19:57.999Z</time></trkpt><trkpt lat="42.18429519236515" lon="14.195028295429996"><ele>535.3333333333334</ele><time>2026-05-01T11:19:59.999Z</time></trkpt><trkpt lat="42.184276862723124" lon="14.195155826119901"><ele>533.6666666666666</ele><time>2026-05-01T11:20:01.999Z</time></trkpt><trkpt lat="42.18437374200988" lon="14.195211711958013"><ele>532.0</ele><time>2026-05-01T11:20:03.999Z</time></trkpt><trkpt lat="42.18444841113343" lon="14.19524207105392"><ele>530.3333333333333</ele><time>2026-05-01T11:20:04.999Z</time></trkpt><trkpt lat="42.18452952528221" lon="14.19527572926145"><ele>528.6666666666666</ele><time>2026-05-01T11:20:05.999Z</time></trkpt><trkpt lat="42.18460255744331" lon="14.195321788656981"><ele>527.0</ele><time>2026-05-01T11:20:06.999Z</time></trkpt><trkpt lat="42.184660976776016" lon="14.195386973341568"><ele>527.0</ele><time>2026-05-01T11:20:07.999Z</time></trkpt><trkpt lat="42.18472423767306" lon="14.195454931733298"><ele>527.0</ele><time>2026-05-01T11:20:08.999Z</time></trkpt><trkpt lat="42.184788334294815" lon="14.195541538241665"><ele>527.0</ele><time>2026-05-01T11:20:09.999Z</time></trkpt><trkpt lat="42.18483877684202" lon="14.195640342690464"><ele>527.0</ele><time>2026-05-01T11:20:10.999Z</time></trkpt><trkpt lat="42.18491285273117" lon="14.195728549734385"><ele>527.0</ele><time>2026-05-01T11:20:11.999Z</time></trkpt><trkpt lat="42.18497855018025" lon="14.195812888904932"><ele>526.1666666666666</ele><time>2026-05-01T11:20:12.999Z</time></trkpt><trkpt lat="42.18503891046641" lon="14.195873998686725"><ele>525.3333333333333</ele><time>2026-05-01T11:20:13.999Z</time></trkpt><trkpt lat="42.185085783431106" lon="14.195944981453605"><ele>524.5</ele><time>2026-05-01T11:20:14.999Z</time></trkpt><trkpt lat="42.18511608041579" lon="14.196043381222434"><ele>523.6666666666666</ele><time>2026-05-01T11:20:15.999Z</time></trkpt><trkpt lat="42.1851431679405" lon="14.196158848987036"><ele>522.8333333333334</ele><time>2026-05-01T11:20:16.999Z</time></trkpt><trkpt lat="42.185163603700495" lon="14.196303635094122"><ele>522.0</ele><time>2026-05-01T11:20:17.999Z</time></trkpt><trkpt lat="42.1851957334717" lon="14.196438925322587"><ele>523.6666666666666</ele><time>2026-05-01T11:20:18.999Z</time></trkpt><trkpt lat="42.185221669572485" lon="14.196573265016701"><ele>525.3333333333334</ele><time>2026-05-01T11:20:19.999Z</time></trkpt><trkpt lat="42.18524826284914" lon="14.196681004380155"><ele>527.0</ele><time>2026-05-01T11:20:20.999Z</time></trkpt><trkpt lat="42.18526755662205" lon="14.196778774719304"><ele>528.6666666666667</ele><time>2026-05-01T11:20:21.999Z</time></trkpt><trkpt lat="42.185281447936035" lon="14.196887149988404"><ele>530.3333333333334</ele><time>2026-05-01T11:20:22.999Z</time></trkpt><trkpt lat="42.18528928011624" lon="14.197013834967875"><ele>532.0</ele><time>2026-05-01T11:20:23.999Z</time></trkpt><trkpt lat="42.18529350482448" lon="14.197144559568343"><ele>532.0</ele><time>2026-05-01T11:20:24.999Z</time></trkpt><trkpt lat="42.185308289975964" lon="14.197283362942027"><ele>532.0</ele><time>2026-05-01T11:20:25.999Z</time></trkpt><trkpt lat="42.18532617380865" lon="14.197427335467756"><ele>532.0</ele><time>2026-05-01T11:20:26.999Z</time></trkpt><trkpt lat="42.185332875950735" lon="14.197568520941035"><ele>532.0</ele><time>2026-05-01T11:20:27.999Z</time></trkpt><trkpt lat="42.1853431853742" lon="14.197726703853121"><ele>532.0</ele><time>2026-05-01T11:20:28.999Z</time></trkpt><trkpt lat="42.185359404335124" lon="14.197896627154933"><ele>534.0</ele><time>2026-05-01T11:20:29.999Z</time></trkpt><trkpt lat="42.18537197448702" lon="14.198044244630415"><ele>536.0</ele><time>2026-05-01T11:20:30.999Z</time></trkpt><trkpt lat="42.18538393200538" lon="14.198183316888471"><ele>538.0</ele><time>2026-05-01T11:20:31.999Z</time></trkpt><trkpt lat="42.185407687652045" lon="14.198310125378164"><ele>540.0</ele><time>2026-05-01T11:20:32.999Z</time></trkpt><trkpt lat="42.185445583370495" lon="14.198429528639998"><ele>542.0</ele><time>2026-05-01T11:20:33.999Z</time></trkpt><trkpt lat="42.185495958130105" lon="14.198562821353963"><ele>544.25</ele><time>2026-05-01T11:20:34.999Z</time></trkpt><trkpt lat="42.18554273555588" lon="14.19872758597967"><ele>546.5</ele><time>2026-05-01T11:20:35.999Z</time></trkpt><trkpt lat="42.18558359254425" lon="14.198886096291725"><ele>548.75</ele><time>2026-05-01T11:20:36.999Z</time></trkpt><trkpt lat="42.18562462630896" lon="14.19903496915298"><ele>551.0</ele><time>2026-05-01T11:20:37.999Z</time></trkpt><trkpt lat="42.18567136274902" lon="14.199184667537356"><ele>551.0</ele><time>2026-05-01T11:20:38.999Z</time></trkpt><trkpt lat="42.185732156109935" lon="14.199351872687958"><ele>551.0</ele><time>2026-05-01T11:20:39.999Z</time></trkpt><trkpt lat="42.18577946125399" lon="14.199512432721857"><ele>551.0</ele><time>2026-05-01T11:20:40.998Z</time></trkpt><trkpt lat="42.1858252910474" lon="14.19963250727304"><ele>551.0</ele><time>2026-05-01T11:20:41.998Z</time></trkpt><trkpt lat="42.185860057504435" lon="14.199726972474815"><ele>551.0</ele><time>2026-05-01T11:20:42.998Z</time></trkpt><trkpt lat="42.18584016120922" lon="14.19983353694831"><ele>551.0</ele><time>2026-05-01T11:20:43.998Z</time></trkpt><trkpt lat="42.185895903140214" lon="14.199946763510235"><ele>551.0</ele><time>2026-05-01T11:20:46.998Z</time></trkpt><trkpt lat="42.18595889376093" lon="14.200086090441399"><ele>551.0</ele><time>2026-05-01T11:20:48.998Z</time></trkpt><trkpt lat="42.185976474650886" lon="14.20023164812444"><ele>551.0</ele><time>2026-05-01T11:20:50.998Z</time></trkpt><trkpt lat="42.18600237619399" lon="14.200368901586643"><ele>551.0</ele><time>2026-05-01T11:20:52.998Z</time></trkpt><trkpt lat="42.18602637241172" lon="14.200502079760117"><ele>551.0</ele><time>2026-05-01T11:20:54.998Z</time></trkpt><trkpt lat="42.186051553410444" lon="14.200636841122734"><ele>551.0</ele><time>2026-05-01T11:20:56.998Z</time></trkpt><trkpt lat="42.18606593307695" lon="14.200720307876086"><ele>551.0</ele><time>2026-05-01T11:20:57.998Z</time></trkpt><trkpt lat="42.18607963497256" lon="14.200829188853808"><ele>551.0</ele><time>2026-05-01T11:20:58.999Z</time></trkpt><trkpt lat="42.18610461944614" lon="14.200948966582404"><ele>551.0</ele><time>2026-05-01T11:20:59.999Z</time></trkpt><trkpt lat="42.186138731480156" lon="14.201080534508664"><ele>551.0</ele><time>2026-05-01T11:21:00.999Z</time></trkpt><trkpt lat="42.18616692705797" lon="14.201202033226393"><ele>549.75</ele><time>2026-05-01T11:21:01.999Z</time></trkpt><trkpt lat="42.18619867176859" lon="14.201326681149464"><ele>548.5</ele><time>2026-05-01T11:21:02.999Z</time></trkpt><trkpt lat="42.186245731921666" lon="14.201453338553932"><ele>547.25</ele><time>2026-05-01T11:21:03.999Z</time></trkpt><trkpt lat="42.18630848751241" lon="14.201586811874614"><ele>546.0</ele><time>2026-05-01T11:21:04.999Z</time></trkpt><trkpt lat="42.18639316175341" lon="14.201728110406421"><ele>545.5</ele><time>2026-05-01T11:21:05.999Z</time></trkpt><trkpt lat="42.18648187990315" lon="14.201873783574445"><ele>545.0</ele><time>2026-05-01T11:21:06.999Z</time></trkpt><trkpt lat="42.186589847737984" lon="14.202010082168622"><ele>544.5</ele><time>2026-05-01T11:21:07.999Z</time></trkpt><trkpt lat="42.18671012040091" lon="14.202152080692034"><ele>544.0</ele><time>2026-05-01T11:21:08.999Z</time></trkpt><trkpt lat="42.1868375880602" lon="14.202298513298704"><ele>541.6666666666667</ele><time>2026-05-01T11:21:09.999Z</time></trkpt><trkpt lat="42.18696440617069" lon="14.202443300475789"><ele>539.3333333333334</ele><time>2026-05-01T11:21:10.999Z</time></trkpt><trkpt lat="42.187089049820024" lon="14.202597189708854"><ele>537.0</ele><time>2026-05-01T11:21:11.999Z</time></trkpt><trkpt lat="42.18721062344908" lon="14.202741985857067"><ele>537.0</ele><time>2026-05-01T11:21:12.999Z</time></trkpt><trkpt lat="42.187333693284984" lon="14.20288550542695"><ele>537.0</ele><time>2026-05-01T11:21:13.999Z</time></trkpt><trkpt lat="42.18744867513719" lon="14.203022164810793"><ele>537.0</ele><time>2026-05-01T11:21:14.999Z</time></trkpt><trkpt lat="42.18755615430504" lon="14.203155629320587"><ele>540.6666666666666</ele><time>2026-05-01T11:21:15.999Z</time></trkpt><trkpt lat="42.187669995631914" lon="14.203298418873782"><ele>544.3333333333333</ele><time>2026-05-01T11:21:16.999Z</time></trkpt><trkpt lat="42.18779833159522" lon="14.203446172702927"><ele>548.0</ele><time>2026-05-01T11:21:17.999Z</time></trkpt><trkpt lat="42.18792449686494" lon="14.203606582583859"><ele>548.0</ele><time>2026-05-01T11:21:18.999Z</time></trkpt><trkpt lat="42.18805039946009" lon="14.203763509003936"><ele>548.0</ele><time>2026-05-01T11:21:19.999Z</time></trkpt><trkpt lat="42.18816649805063" lon="14.20391047691264"><ele>548.0</ele><time>2026-05-01T11:21:20.999Z</time></trkpt><trkpt lat="42.18828072240548" lon="14.20406970166332"><ele>550.0</ele><time>2026-05-01T11:21:21.999Z</time></trkpt><trkpt lat="42.18839031861242" lon="14.204229569173576"><ele>552.0</ele><time>2026-05-01T11:21:22.999Z</time></trkpt><trkpt lat="42.1884747126615" lon="14.20440030372825"><ele>554.0</ele><time>2026-05-01T11:21:23.999Z</time></trkpt><trkpt lat="42.18855063613449" lon="14.204596083889614"><ele>554.0</ele><time>2026-05-01T11:21:24.999Z</time></trkpt><trkpt lat="42.18862017463847" lon="14.20480787445776"><ele>554.0</ele><time>2026-05-01T11:21:25.999Z</time></trkpt><trkpt lat="42.18868818607583" lon="14.205017432610823"><ele>554.0</ele><time>2026-05-01T11:21:26.999Z</time></trkpt><trkpt lat="42.18875439113173" lon="14.205225743912333"><ele>554.5</ele><time>2026-05-01T11:21:27.999Z</time></trkpt><trkpt lat="42.188823965816304" lon="14.205430639399479"><ele>555.0</ele><time>2026-05-01T11:21:28.999Z</time></trkpt><trkpt lat="42.18889485993157" lon="14.205598918306604"><ele>555.5</ele><time>2026-05-01T11:21:29.999Z</time></trkpt><trkpt lat="42.188963772078786" lon="14.205752514135094"><ele>556.0</ele><time>2026-05-01T11:21:30.999Z</time></trkpt><trkpt lat="42.18906773506118" lon="14.205861677091692"><ele>556.0</ele><time>2026-05-01T11:21:31.999Z</time></trkpt><trkpt lat="42.189204914544945" lon="14.205941078513863"><ele>556.0</ele><time>2026-05-01T11:21:32.999Z</time></trkpt><trkpt lat="42.18934622311486" lon="14.20601127856396"><ele>556.0</ele><time>2026-05-01T11:21:33.999Z</time></trkpt><trkpt lat="42.18944691694113" lon="14.206105918050687"><ele>556.0</ele><time>2026-05-01T11:21:34.999Z</time></trkpt><trkpt lat="42.18950488464873" lon="14.206243610520325"><ele>556.0</ele><time>2026-05-01T11:21:35.999Z</time></trkpt><trkpt lat="42.18956298605446" lon="14.206408122359122"><ele>556.0</ele><time>2026-05-01T11:21:36.999Z</time></trkpt><trkpt lat="42.189633581729616" lon="14.206586567511861"><ele>556.0</ele><time>2026-05-01T11:21:37.999Z</time></trkpt><trkpt lat="42.1897145670083" lon="14.206764285290971"><ele>556.0</ele><time>2026-05-01T11:21:38.999Z</time></trkpt><trkpt lat="42.189781051104696" lon="14.206925085986477"><ele>555.75</ele><time>2026-05-01T11:21:39.999Z</time></trkpt><trkpt lat="42.189832784307335" lon="14.207078090881978"><ele>555.5</ele><time>2026-05-01T11:21:40.999Z</time></trkpt><trkpt lat="42.18986182941884" lon="14.207231110645063"><ele>555.25</ele><time>2026-05-01T11:21:41.999Z</time></trkpt><trkpt lat="42.18985054401594" lon="14.20739549336664"><ele>555.0</ele><time>2026-05-01T11:21:42.999Z</time></trkpt><trkpt lat="42.189803719198444" lon="14.207556015335339"><ele>558.0</ele><time>2026-05-01T11:21:43.999Z</time></trkpt><trkpt lat="42.18974808170417" lon="14.207703564685254"><ele>561.0</ele><time>2026-05-01T11:21:44.999Z</time></trkpt><trkpt lat="42.18969709236118" lon="14.207842192145014"><ele>564.0</ele><time>2026-05-01T11:21:45.999Z</time></trkpt><trkpt lat="42.18965512008689" lon="14.207970080337223"><ele>567.0</ele><time>2026-05-01T11:21:46.999Z</time></trkpt><trkpt lat="42.18961518353804" lon="14.208087042234748"><ele>570.0</ele><time>2026-05-01T11:21:47.999Z</time></trkpt><trkpt lat="42.18957290423795" lon="14.208207051600228"><ele>570.2</ele><time>2026-05-01T11:21:48.999Z</time></trkpt><trkpt lat="42.1895320297256" lon="14.208337291897015"><ele>570.4</ele><time>2026-05-01T11:21:49.999Z</time></trkpt><trkpt lat="42.189490488881184" lon="14.208466427623225"><ele>570.6</ele><time>2026-05-01T11:21:50.999Z</time></trkpt><trkpt lat="42.189449599246394" lon="14.20859490487717"><ele>570.8</ele><time>2026-05-01T11:21:51.999Z</time></trkpt><trkpt lat="42.18940597200071" lon="14.208724613720204"><ele>571.0</ele><time>2026-05-01T11:21:52.999Z</time></trkpt><trkpt lat="42.189365929086065" lon="14.208851174014892"><ele>571.0</ele><time>2026-05-01T11:21:53.999Z</time></trkpt><trkpt lat="42.18932772404316" lon="14.208968437266034"><ele>571.0</ele><time>2026-05-01T11:21:54.999Z</time></trkpt><trkpt lat="42.18929181779028" lon="14.209081360624271"><ele>571.0</ele><time>2026-05-01T11:21:55.999Z</time></trkpt><trkpt lat="42.18925714543133" lon="14.209191741619335"><ele>571.0</ele><time>2026-05-01T11:21:56.999Z</time></trkpt><trkpt lat="42.189221174263224" lon="14.20929205865782"><ele>571.0</ele><time>2026-05-01T11:21:57.999Z</time></trkpt><trkpt lat="42.18918092225273" lon="14.209375821774795"><ele>571.0</ele><time>2026-05-01T11:21:58.999Z</time></trkpt><trkpt lat="42.189339575765885" lon="14.209459106253245"><ele>571.0</ele><time>2026-05-01T11:22:01.999Z</time></trkpt><trkpt lat="42.189421193688425" lon="14.209401129257992"><ele>571.0</ele><time>2026-05-01T11:22:02.999Z</time></trkpt><trkpt lat="42.18948319950547" lon="14.209293949164826"><ele>571.0</ele><time>2026-05-01T11:22:03.999Z</time></trkpt><trkpt lat="42.189519128578056" lon="14.20913321514252"><ele>571.0</ele><time>2026-05-01T11:22:04.999Z</time></trkpt><trkpt lat="42.18954787771835" lon="14.208963401642379"><ele>571.0</ele><time>2026-05-01T11:22:05.999Z</time></trkpt><trkpt lat="42.18961761962311" lon="14.208826449150912"><ele>571.0</ele><time>2026-05-01T11:22:06.999Z</time></trkpt><trkpt lat="42.1897055364034" lon="14.208705464027751"><ele>571.0</ele><time>2026-05-01T11:22:07.999Z</time></trkpt><trkpt lat="42.18980978093355" lon="14.208592775216692"><ele>571.0</ele><time>2026-05-01T11:22:08.999Z</time></trkpt><trkpt lat="42.18988609001162" lon="14.20843765093772"><ele>571.0</ele><time>2026-05-01T11:22:09.999Z</time></trkpt><trkpt lat="42.18993371468241" lon="14.208242637794639"><ele>567.3333333333334</ele><time>2026-05-01T11:22:10.999Z</time></trkpt><trkpt lat="42.18996595957146" lon="14.208027502902375"><ele>563.6666666666666</ele><time>2026-05-01T11:22:11.999Z</time></trkpt><trkpt lat="42.19006315901151" lon="14.207859587541748"><ele>560.0</ele><time>2026-05-01T11:22:13Z</time></trkpt><trkpt lat="42.19015974328049" lon="14.20768537427542"><ele>560.0</ele><time>2026-05-01T11:22:14Z</time></trkpt><trkpt lat="42.1902296220415" lon="14.207504856439492"><ele>560.0</ele><time>2026-05-01T11:22:15Z</time></trkpt><trkpt lat="42.19025785886759" lon="14.207341648724826"><ele>560.0</ele><time>2026-05-01T11:22:16Z</time></trkpt><trkpt lat="42.19024773129674" lon="14.207199417228246"><ele>560.0</ele><time>2026-05-01T11:22:17Z</time></trkpt><trkpt lat="42.19020953061685" lon="14.207056974309454"><ele>558.3333333333333</ele><time>2026-05-01T11:22:18Z</time></trkpt><trkpt lat="42.190140782776034" lon="14.206895398298796"><ele>556.6666666666666</ele><time>2026-05-01T11:22:19Z</time></trkpt><trkpt lat="42.190060710355425" lon="14.206704129914758"><ele>555.0</ele><time>2026-05-01T11:22:20Z</time></trkpt><trkpt lat="42.18997124525464" lon="14.20649477548945"><ele>555.3333333333334</ele><time>2026-05-01T11:22:21Z</time></trkpt><trkpt lat="42.1898776050556" lon="14.206292319078624"><ele>555.6666666666667</ele><time>2026-05-01T11:22:22Z</time></trkpt><trkpt lat="42.189792707052405" lon="14.206107567160192"><ele>556.0</ele><time>2026-05-01T11:22:23Z</time></trkpt><trkpt lat="42.18971379460029" lon="14.20595616070557"><ele>556.0</ele><time>2026-05-01T11:22:24Z</time></trkpt><trkpt lat="42.18964716828639" lon="14.205839261253345"><ele>556.0</ele><time>2026-05-01T11:22:25Z</time></trkpt><trkpt lat="42.18960363723255" lon="14.205757344099029"><ele>556.0</ele><time>2026-05-01T11:22:26Z</time></trkpt><trkpt lat="42.18959758368809" lon="14.205667990033398"><ele>556.0</ele><time>2026-05-01T11:22:28Z</time></trkpt><trkpt lat="42.189735945230495" lon="14.205656242025404"><ele>556.0</ele><time>2026-05-01T11:22:30Z</time></trkpt><trkpt lat="42.189850145498866" lon="14.20566064208804"><ele>552.75</ele><time>2026-05-01T11:22:31Z</time></trkpt><trkpt lat="42.18997749974523" lon="14.20571974159623"><ele>549.5</ele><time>2026-05-01T11:22:32Z</time></trkpt><trkpt lat="42.19010967338114" lon="14.205796388588963"><ele>546.25</ele><time>2026-05-01T11:22:33Z</time></trkpt><trkpt lat="42.19022056891186" lon="14.205919745193752"><ele>543.0</ele><time>2026-05-01T11:22:34Z</time></trkpt><trkpt lat="42.190296520518274" lon="14.206082448491825"><ele>543.0</ele><time>2026-05-01T11:22:35Z</time></trkpt><trkpt lat="42.19036014556309" lon="14.206265984943627"><ele>543.0</ele><time>2026-05-01T11:22:36Z</time></trkpt><trkpt lat="42.19042403326549" lon="14.206479599046258"><ele>543.0</ele><time>2026-05-01T11:22:37Z</time></trkpt><trkpt lat="42.19048433269653" lon="14.206718931428869"><ele>547.0</ele><time>2026-05-01T11:22:38Z</time></trkpt><trkpt lat="42.19052544463078" lon="14.206980685702522"><ele>551.0</ele><time>2026-05-01T11:22:39Z</time></trkpt><trkpt lat="42.19054728639017" lon="14.207260360098633"><ele>555.0</ele><time>2026-05-01T11:22:40Z</time></trkpt><trkpt lat="42.19055027832156" lon="14.207489074802586"><ele>556.0</ele><time>2026-05-01T11:22:41Z</time></trkpt><trkpt lat="42.190566597013095" lon="14.207704925168382"><ele>557.0</ele><time>2026-05-01T11:22:42Z</time></trkpt><trkpt lat="42.190568695880785" lon="14.20785922270124"><ele>558.0</ele><time>2026-05-01T11:22:43Z</time></trkpt><trkpt lat="42.19054565587245" lon="14.207983601506422"><ele>559.0</ele><time>2026-05-01T11:22:44Z</time></trkpt><trkpt lat="42.190539766991115" lon="14.208073006192324"><ele>560.0</ele><time>2026-05-01T11:22:45Z</time></trkpt><trkpt lat="42.19071013917605" lon="14.208129470645886"><ele>553.5</ele><time>2026-05-01T11:22:46.998Z</time></trkpt><trkpt lat="42.19082793959906" lon="14.20811475660205"><ele>547.0</ele><time>2026-05-01T11:22:47.998Z</time></trkpt><trkpt lat="42.1909875823726" lon="14.208112222699144"><ele>540.5</ele><time>2026-05-01T11:22:48.998Z</time></trkpt><trkpt lat="42.19114212691109" lon="14.208161383219895"><ele>534.0</ele><time>2026-05-01T11:22:49.998Z</time></trkpt><trkpt lat="42.191300110603386" lon="14.208156456522145"><ele>534.0</ele><time>2026-05-01T11:22:50.998Z</time></trkpt><trkpt lat="42.191480852334074" lon="14.208167896698335"><ele>534.0</ele><time>2026-05-01T11:22:51.998Z</time></trkpt><trkpt lat="42.19167211708149" lon="14.208171306178858"><ele>534.0</ele><time>2026-05-01T11:22:52.998Z</time></trkpt><trkpt lat="42.19183988496125" lon="14.208172038299162"><ele>531.75</ele><time>2026-05-01T11:22:53.999Z</time></trkpt><trkpt lat="42.19197477537253" lon="14.208171471837849"><ele>529.5</ele><time>2026-05-01T11:22:54.999Z</time></trkpt><trkpt lat="42.192089406255306" lon="14.208183103709251"><ele>527.25</ele><time>2026-05-01T11:22:55.999Z</time></trkpt><trkpt lat="42.19220416916202" lon="14.208180034722533"><ele>525.0</ele><time>2026-05-01T11:22:56.999Z</time></trkpt><trkpt lat="42.192328211855255" lon="14.20818287605478"><ele>521.75</ele><time>2026-05-01T11:22:57.999Z</time></trkpt><trkpt lat="42.192476091684455" lon="14.208154692344248"><ele>518.5</ele><time>2026-05-01T11:22:58.999Z</time></trkpt><trkpt lat="42.19262405664367" lon="14.208111382952822"><ele>515.25</ele><time>2026-05-01T11:22:59.999Z</time></trkpt><trkpt lat="42.1927481534731" lon="14.208057179499331"><ele>512.0</ele><time>2026-05-01T11:23:00.999Z</time></trkpt><trkpt lat="42.19287195591745" lon="14.208029935910332"><ele>512.0</ele><time>2026-05-01T11:23:01.999Z</time></trkpt><trkpt lat="42.19300978929378" lon="14.208009730185884"><ele>512.0</ele><time>2026-05-01T11:23:02.999Z</time></trkpt><trkpt lat="42.19313789542534" lon="14.207991879534012"><ele>512.0</ele><time>2026-05-01T11:23:03.999Z</time></trkpt><trkpt lat="42.193275310176695" lon="14.20798405164413"><ele>512.0</ele><time>2026-05-01T11:23:04.999Z</time></trkpt><trkpt lat="42.19343844236009" lon="14.208011096152656"><ele>509.3333333333333</ele><time>2026-05-01T11:23:05.999Z</time></trkpt><trkpt lat="42.19363221968389" lon="14.208043336322168"><ele>506.66666666666663</ele><time>2026-05-01T11:23:06.999Z</time></trkpt><trkpt lat="42.193821702868725" lon="14.208056936373854"><ele>504.0</ele><time>2026-05-01T11:23:07.999Z</time></trkpt><trkpt lat="42.193990310256034" lon="14.208090679881845"><ele>501.75</ele><time>2026-05-01T11:23:08.999Z</time></trkpt><trkpt lat="42.194135069104206" lon="14.20813045793968"><ele>499.5</ele><time>2026-05-01T11:23:09.999Z</time></trkpt><trkpt lat="42.194265611736235" lon="14.208189419251736"><ele>497.25</ele><time>2026-05-01T11:23:10.999Z</time></trkpt><trkpt lat="42.194380456097825" lon="14.208269985247144"><ele>495.0</ele><time>2026-05-01T11:23:11.999Z</time></trkpt><trkpt lat="42.19447923324009" lon="14.208391529012887"><ele>495.0</ele><time>2026-05-01T11:23:12.999Z</time></trkpt><trkpt lat="42.194624501216765" lon="14.208516312067221"><ele>495.0</ele><time>2026-05-01T11:23:13.999Z</time></trkpt><trkpt lat="42.194761000556866" lon="14.208676731021422"><ele>495.0</ele><time>2026-05-01T11:23:14.999Z</time></trkpt><trkpt lat="42.194850645495436" lon="14.208817777056094"><ele>492.6</ele><time>2026-05-01T11:23:15.999Z</time></trkpt><trkpt lat="42.19494221454758" lon="14.208903011744525"><ele>490.2</ele><time>2026-05-01T11:23:16.999Z</time></trkpt><trkpt lat="42.19500639599573" lon="14.20897932117158"><ele>487.79999999999995</ele><time>2026-05-01T11:23:17.999Z</time></trkpt><trkpt lat="42.19506188434704" lon="14.209024568885695"><ele>485.4</ele><time>2026-05-01T11:23:18.999Z</time></trkpt><trkpt lat="42.195150467208975" lon="14.2089715918069"><ele>483.0</ele><time>2026-05-01T11:23:19.999Z</time></trkpt><trkpt lat="42.195267046992015" lon="14.208894795697438"><ele>482.0</ele><time>2026-05-01T11:23:20.999Z</time></trkpt><trkpt lat="42.195402430579584" lon="14.208789926598564"><ele>481.0</ele><time>2026-05-01T11:23:21.999Z</time></trkpt><trkpt lat="42.19556790090252" lon="14.208695811228472"><ele>480.0</ele><time>2026-05-01T11:23:22.999Z</time></trkpt><trkpt lat="42.19569524853839" lon="14.208532901805818"><ele>478.5</ele><time>2026-05-01T11:23:23.999Z</time></trkpt><trkpt lat="42.19580170971749" lon="14.208406223624827"><ele>477.0</ele><time>2026-05-01T11:23:24.999Z</time></trkpt><trkpt lat="42.195893793979955" lon="14.208317551780736"><ele>475.5</ele><time>2026-05-01T11:23:25.999Z</time></trkpt><trkpt lat="42.19598509646113" lon="14.208268357813402"><ele>474.0</ele><time>2026-05-01T11:23:26.999Z</time></trkpt><trkpt lat="42.19608037786043" lon="14.208322936842814"><ele>474.0</ele><time>2026-05-01T11:23:27.999Z</time></trkpt><trkpt lat="42.19619455335234" lon="14.208325479009602"><ele>474.0</ele><time>2026-05-01T11:23:28.999Z</time></trkpt><trkpt lat="42.19632326815213" lon="14.208331677344049"><ele>474.0</ele><time>2026-05-01T11:23:29.999Z</time></trkpt><trkpt lat="42.19647206150775" lon="14.208266998142376"><ele>474.0</ele><time>2026-05-01T11:23:30.999Z</time></trkpt><trkpt lat="42.19660317182209" lon="14.208240801614606"><ele>470.75</ele><time>2026-05-01T11:23:31.999Z</time></trkpt><trkpt lat="42.19676970928263" lon="14.208197210198342"><ele>467.5</ele><time>2026-05-01T11:23:32.999Z</time></trkpt><trkpt lat="42.196894737724875" lon="14.208161215801104"><ele>464.25</ele><time>2026-05-01T11:23:33.999Z</time></trkpt><trkpt lat="42.19702051166522" lon="14.208103045502744"><ele>461.0</ele><time>2026-05-01T11:23:34.999Z</time></trkpt><trkpt lat="42.197138452558505" lon="14.208047725437355"><ele>459.4</ele><time>2026-05-01T11:23:35.999Z</time></trkpt><trkpt lat="42.19725619879984" lon="14.208030330792948"><ele>457.8</ele><time>2026-05-01T11:23:36.999Z</time></trkpt><trkpt lat="42.19736480777638" lon="14.208049734567314"><ele>456.19999999999993</ele><time>2026-05-01T11:23:37.999Z</time></trkpt><trkpt lat="42.19745870414586" lon="14.208069283810058"><ele>454.59999999999997</ele><time>2026-05-01T11:23:38.999Z</time></trkpt><trkpt lat="42.197570999948354" lon="14.208139253143553"><ele>453.0</ele><time>2026-05-01T11:23:39.999Z</time></trkpt><trkpt lat="42.19770848781851" lon="14.208221134908266"><ele>451.66666666666663</ele><time>2026-05-01T11:23:41Z</time></trkpt><trkpt lat="42.19786222962148" lon="14.208276145521342"><ele>450.3333333333333</ele><time>2026-05-01T11:23:42Z</time></trkpt><trkpt lat="42.19804196020312" lon="14.208325398724273"><ele>449.0</ele><time>2026-05-01T11:23:43Z</time></trkpt><trkpt lat="42.198198252633404" lon="14.208370265395821"><ele>445.25</ele><time>2026-05-01T11:23:44Z</time></trkpt><trkpt lat="42.198343858302806" lon="14.208410438734678"><ele>441.5</ele><time>2026-05-01T11:23:45Z</time></trkpt><trkpt lat="42.19848654073619" lon="14.208439789139112"><ele>437.75</ele><time>2026-05-01T11:23:46Z</time></trkpt><trkpt lat="42.19862323934615" lon="14.208454407689302"><ele>434.0</ele><time>2026-05-01T11:23:47Z</time></trkpt><trkpt lat="42.19874467393508" lon="14.208442026058814"><ele>434.0</ele><time>2026-05-01T11:23:48Z</time></trkpt><trkpt lat="42.198854914330006" lon="14.208467327898878"><ele>434.0</ele><time>2026-05-01T11:23:49Z</time></trkpt><trkpt lat="42.19895951673351" lon="14.208485029034"><ele>434.0</ele><time>2026-05-01T11:23:50Z</time></trkpt><trkpt lat="42.19903531126728" lon="14.208467479161062"><ele>434.0</ele><time>2026-05-01T11:23:51Z</time></trkpt><trkpt lat="42.19910462449799" lon="14.20834749064213"><ele>434.0</ele><time>2026-05-01T11:23:53Z</time></trkpt><trkpt lat="42.19909000666644" lon="14.208257665861435"><ele>431.99999999999994</ele><time>2026-05-01T11:23:54Z</time></trkpt><trkpt lat="42.199054968648106" lon="14.208158424165623"><ele>430.0</ele><time>2026-05-01T11:23:55Z</time></trkpt><trkpt lat="42.199021463809515" lon="14.208051520615467"><ele>428.0</ele><time>2026-05-01T11:23:56Z</time></trkpt><trkpt lat="42.19898827528568" lon="14.20795763771582"><ele>426.0</ele><time>2026-05-01T11:23:57Z</time></trkpt><trkpt lat="42.198970076707624" lon="14.207860288922744"><ele>423.99999999999994</ele><time>2026-05-01T11:23:58Z</time></trkpt><trkpt lat="42.19897878568074" lon="14.207742010936734"><ele>422.0</ele><time>2026-05-01T11:23:59Z</time></trkpt><trkpt lat="42.1989819980261" lon="14.207589837226097"><ele>421.5</ele><time>2026-05-01T11:24:00Z</time></trkpt><trkpt lat="42.19902680128549" lon="14.20745381003907"><ele>421.0</ele><time>2026-05-01T11:24:01Z</time></trkpt><trkpt lat="42.19910215001107" lon="14.20730843077731"><ele>420.5</ele><time>2026-05-01T11:24:02Z</time></trkpt><trkpt lat="42.19917093709959" lon="14.207180147956109"><ele>420.0</ele><time>2026-05-01T11:24:03Z</time></trkpt><trkpt lat="42.199232947244205" lon="14.207081986494268"><ele>420.0</ele><time>2026-05-01T11:24:04Z</time></trkpt><trkpt lat="42.19927904374628" lon="14.206990754219524"><ele>420.0</ele><time>2026-05-01T11:24:05Z</time></trkpt><trkpt lat="42.19933381195962" lon="14.206947105183788"><ele>420.0</ele><time>2026-05-01T11:24:06Z</time></trkpt><trkpt lat="42.19946722459423" lon="14.206930367576275"><ele>420.0</ele><time>2026-05-01T11:24:08Z</time></trkpt><trkpt lat="42.1995485023579" lon="14.206945602566217"><ele>420.0</ele><time>2026-05-01T11:24:09Z</time></trkpt><trkpt lat="42.19965229381687" lon="14.206977574328992"><ele>420.0</ele><time>2026-05-01T11:24:10Z</time></trkpt><trkpt lat="42.199780050581545" lon="14.207026125427499"><ele>420.0</ele><time>2026-05-01T11:24:11Z</time></trkpt><trkpt lat="42.19988295806699" lon="14.20713156516026"><ele>420.0</ele><time>2026-05-01T11:24:12Z</time></trkpt><trkpt lat="42.19997887124887" lon="14.207228639728859"><ele>420.0</ele><time>2026-05-01T11:24:13Z</time></trkpt><trkpt lat="42.2000502475946" lon="14.207270546474934"><ele>419.75</ele><time>2026-05-01T11:24:14Z</time></trkpt><trkpt lat="42.20019811487872" lon="14.207268042817647"><ele>419.5</ele><time>2026-05-01T11:24:16Z</time></trkpt><trkpt lat="42.20032499380247" lon="14.207319375539653"><ele>419.25</ele><time>2026-05-01T11:24:18Z</time></trkpt><trkpt lat="42.200409733727014" lon="14.207339825605457"><ele>419.0</ele><time>2026-05-01T11:24:19Z</time></trkpt><trkpt lat="42.200496993039486" lon="14.207371787817447"><ele>419.0</ele><time>2026-05-01T11:24:20Z</time></trkpt><trkpt lat="42.20056105376733" lon="14.20737904689687"><ele>419.0</ele><time>2026-05-01T11:24:21Z</time></trkpt><trkpt lat="42.20065442559813" lon="14.207382962543392"><ele>419.0</ele><time>2026-05-01T11:24:23Z</time></trkpt><trkpt lat="42.20064157001432" lon="14.207531828180844"><ele>419.0</ele><time>2026-05-01T11:24:26Z</time></trkpt><trkpt lat="42.20066626203737" lon="14.207678988388343"><ele>419.0</ele><time>2026-05-01T11:24:28Z</time></trkpt><trkpt lat="42.20068960067808" lon="14.207784020124583"><ele>419.0</ele><time>2026-05-01T11:24:30Z</time></trkpt><trkpt lat="42.20072110894714" lon="14.207862017982698"><ele>419.0</ele><time>2026-05-01T11:24:34Z</time></trkpt><trkpt lat="42.20079726487906" lon="14.207846643681787"><ele>419.0</ele><time>2026-05-01T11:24:35Z</time></trkpt><trkpt lat="42.20071184604875" lon="14.207806716080043"><ele>419.0</ele><time>2026-05-01T11:24:50Z</time></trkpt><trkpt lat="42.20055751099263" lon="14.207840176675438"><ele>419.0</ele><time>2026-05-01T11:24:53.999Z</time></trkpt><trkpt lat="42.200495416508446" lon="14.207991933819109"><ele>418.99999999999994</ele><time>2026-05-01T11:24:57.999Z</time></trkpt><trkpt lat="42.20051402237693" lon="14.208086540618519"><ele>419.0</ele><time>2026-05-01T11:24:58.999Z</time></trkpt><trkpt lat="42.20054786289652" lon="14.208176307108955"><ele>419.0</ele><time>2026-05-01T11:24:59.999Z</time></trkpt><trkpt lat="42.2005924816267" lon="14.208254690149722"><ele>419.0</ele><time>2026-05-01T11:25:00.999Z</time></trkpt><trkpt lat="42.20058644603485" lon="14.208420915606286"><ele>418.99999999999994</ele><time>2026-05-01T11:25:02.999Z</time></trkpt><trkpt lat="42.200577387318795" lon="14.208546533120082"><ele>419.0</ele><time>2026-05-01T11:25:03.999Z</time></trkpt><trkpt lat="42.20057583589412" lon="14.208677631057048"><ele>418.49999999999994</ele><time>2026-05-01T11:25:04.999Z</time></trkpt><trkpt lat="42.200606747374295" lon="14.20880600946758"><ele>418.0</ele><time>2026-05-01T11:25:05.999Z</time></trkpt><trkpt lat="42.20061874303082" lon="14.208926746375292"><ele>417.5</ele><time>2026-05-01T11:25:06.999Z</time></trkpt><trkpt lat="42.200631335418905" lon="14.209034142568214"><ele>417.0</ele><time>2026-05-01T11:25:07.999Z</time></trkpt><trkpt lat="42.200645805498496" lon="14.209127456269881"><ele>416.49999999999994</ele><time>2026-05-01T11:25:08.999Z</time></trkpt><trkpt lat="42.20066757028323" lon="14.209265911945273"><ele>416.0</ele><time>2026-05-01T11:25:10.999Z</time></trkpt><trkpt lat="42.20068332249464" lon="14.209367190942679"><ele>416.0</ele><time>2026-05-01T11:25:11.999Z</time></trkpt><trkpt lat="42.200741437360016" lon="14.2095047919532"><ele>416.0</ele><time>2026-05-01T11:25:14Z</time></trkpt><trkpt lat="42.200846047740086" lon="14.20953331358177"><ele>416.0</ele><time>2026-05-01T11:25:16Z</time></trkpt><trkpt lat="42.200941238620636" lon="14.209508507913288"><ele>416.0</ele><time>2026-05-01T11:25:17Z</time></trkpt><trkpt lat="42.20105025377807" lon="14.209460378261328"><ele>416.0</ele><time>2026-05-01T11:25:18Z</time></trkpt><trkpt lat="42.20116339536095" lon="14.209442821949917"><ele>416.0</ele><time>2026-05-01T11:25:19Z</time></trkpt><trkpt lat="42.20125427056797" lon="14.209443598262123"><ele>416.0</ele><time>2026-05-01T11:25:20Z</time></trkpt><trkpt lat="42.20133608869965" lon="14.209468900607325"><ele>416.0</ele><time>2026-05-01T11:25:21Z</time></trkpt><trkpt lat="42.2014334644477" lon="14.20949296583213"><ele>416.0</ele><time>2026-05-01T11:25:22Z</time></trkpt><trkpt lat="42.201531892500775" lon="14.209514557637805"><ele>416.0</ele><time>2026-05-01T11:25:23Z</time></trkpt><trkpt lat="42.20161680657275" lon="14.20950405620787"><ele>415.6</ele><time>2026-05-01T11:25:24Z</time></trkpt><trkpt lat="42.201710957538474" lon="14.209476112609686"><ele>415.20000000000005</ele><time>2026-05-01T11:25:25Z</time></trkpt><trkpt lat="42.201829155101954" lon="14.209429677824446"><ele>414.79999999999995</ele><time>2026-05-01T11:25:26Z</time></trkpt><trkpt lat="42.20193105464874" lon="14.209404513908957"><ele>414.4</ele><time>2026-05-01T11:25:27Z</time></trkpt><trkpt lat="42.20202093548082" lon="14.209411744515524"><ele>414.0</ele><time>2026-05-01T11:25:28Z</time></trkpt><trkpt lat="42.20210580586979" lon="14.20940786744546"><ele>414.0</ele><time>2026-05-01T11:25:29Z</time></trkpt><trkpt lat="42.20218008137776" lon="14.209411030473856"><ele>414.0</ele><time>2026-05-01T11:25:30Z</time></trkpt><trkpt lat="42.202251718994184" lon="14.209425321192603"><ele>414.0</ele><time>2026-05-01T11:25:31Z</time></trkpt><trkpt lat="42.20235035292957" lon="14.209438980653154"><ele>414.0</ele><time>2026-05-01T11:25:32Z</time></trkpt><trkpt lat="42.20244453235825" lon="14.209481258887122"><ele>414.0</ele><time>2026-05-01T11:25:33Z</time></trkpt><trkpt lat="42.20254626653044" lon="14.209510632654625"><ele>414.0</ele><time>2026-05-01T11:25:34Z</time></trkpt><trkpt lat="42.202651354263736" lon="14.209546803220137"><ele>413.5</ele><time>2026-05-01T11:25:35Z</time></trkpt><trkpt lat="42.20272691913654" lon="14.209575072971004"><ele>413.0</ele><time>2026-05-01T11:25:36Z</time></trkpt><trkpt lat="42.20280854076357" lon="14.20958705211824"><ele>412.5</ele><time>2026-05-01T11:25:37Z</time></trkpt><trkpt lat="42.20289302104189" lon="14.209551899781486"><ele>412.0</ele><time>2026-05-01T11:25:38Z</time></trkpt><trkpt lat="42.202974061804376" lon="14.209540261372958"><ele>411.5</ele><time>2026-05-01T11:25:39Z</time></trkpt><trkpt lat="42.20305419246604" lon="14.209528753685957"><ele>411.0</ele><time>2026-05-01T11:25:40Z</time></trkpt><trkpt lat="42.203123300271706" lon="14.209518828999729"><ele>410.33333333333337</ele><time>2026-05-01T11:25:41Z</time></trkpt><trkpt lat="42.203332364421826" lon="14.209819434462895"><ele>409.6666666666667</ele><time>2026-05-01T11:25:43Z</time></trkpt><trkpt lat="42.20345454108578" lon="14.209833200079018"><ele>409.0</ele><time>2026-05-01T11:25:44Z</time></trkpt><trkpt lat="42.20357527365167" lon="14.209839582227522"><ele>409.0</ele><time>2026-05-01T11:25:45Z</time></trkpt><trkpt lat="42.2036891190676" lon="14.209842397887948"><ele>409.0</ele><time>2026-05-01T11:25:46Z</time></trkpt><trkpt lat="42.20376434607448" lon="14.20985283135288"><ele>409.0</ele><time>2026-05-01T11:25:47Z</time></trkpt><trkpt lat="42.20388180561046" lon="14.209780683097398"><ele>409.0</ele><time>2026-05-01T11:25:49Z</time></trkpt><trkpt lat="42.203951793616156" lon="14.209709824053643"><ele>409.0</ele><time>2026-05-01T11:25:50Z</time></trkpt><trkpt lat="42.204000435688656" lon="14.209632787187797"><ele>408.33333333333337</ele><time>2026-05-01T11:25:51Z</time></trkpt><trkpt lat="42.204044601112784" lon="14.20955910108368"><ele>407.6666666666667</ele><time>2026-05-01T11:25:52Z</time></trkpt><trkpt lat="42.204115390130916" lon="14.209502764985643"><ele>407.0</ele><time>2026-05-01T11:25:53Z</time></trkpt><trkpt lat="42.20418767777048" lon="14.209498575859042"><ele>406.33333333333337</ele><time>2026-05-01T11:25:54Z</time></trkpt><trkpt lat="42.20426680795501" lon="14.209512802882529"><ele>405.6666666666667</ele><time>2026-05-01T11:25:55Z</time></trkpt><trkpt lat="42.20433701282334" lon="14.209554702533202"><ele>405.0</ele><time>2026-05-01T11:25:56Z</time></trkpt><trkpt lat="42.204416129650184" lon="14.20961707733726"><ele>405.0</ele><time>2026-05-01T11:25:57Z</time></trkpt><trkpt lat="42.20448872583541" lon="14.209687956236243"><ele>405.0</ele><time>2026-05-01T11:25:58Z</time></trkpt><trkpt lat="42.2045603538107" lon="14.209770617362773"><ele>405.0</ele><time>2026-05-01T11:25:59Z</time></trkpt><trkpt lat="42.20463995604958" lon="14.209873145435097"><ele>405.0</ele><time>2026-05-01T11:26:00Z</time></trkpt><trkpt lat="42.20470759957421" lon="14.209960893075259"><ele>405.0</ele><time>2026-05-01T11:26:01Z</time></trkpt><trkpt lat="42.20476616005833" lon="14.210043167817574"><ele>403.6</ele><time>2026-05-01T11:26:02Z</time></trkpt><trkpt lat="42.20482327054203" lon="14.210132288171351"><ele>402.2</ele><time>2026-05-01T11:26:03Z</time></trkpt><trkpt lat="42.20494379422454" lon="14.210280449403584"><ele>400.79999999999995</ele><time>2026-05-01T11:26:05Z</time></trkpt><trkpt lat="42.20501227805967" lon="14.210346036941496"><ele>399.4</ele><time>2026-05-01T11:26:06Z</time></trkpt><trkpt lat="42.205089892064365" lon="14.210409404080561"><ele>398.0</ele><time>2026-05-01T11:26:07Z</time></trkpt><trkpt lat="42.205154541668435" lon="14.210443045157497"><ele>398.0</ele><time>2026-05-01T11:26:08Z</time></trkpt><trkpt lat="42.20522085389242" lon="14.21044471505669"><ele>398.0</ele><time>2026-05-01T11:26:09Z</time></trkpt><trkpt lat="42.205316072639064" lon="14.21042809100094"><ele>398.0</ele><time>2026-05-01T11:26:10Z</time></trkpt><trkpt lat="42.20543977570161" lon="14.21041185409156"><ele>398.0</ele><time>2026-05-01T11:26:11Z</time></trkpt><trkpt lat="42.20553978146073" lon="14.210429330553676"><ele>398.0</ele><time>2026-05-01T11:26:12Z</time></trkpt><trkpt lat="42.20560214589153" lon="14.210476874352398"><ele>398.0</ele><time>2026-05-01T11:26:13Z</time></trkpt><trkpt lat="42.20565004017835" lon="14.210536959558121"><ele>398.0</ele><time>2026-05-01T11:26:14Z</time></trkpt><trkpt lat="42.205721145814" lon="14.210585814481455"><ele>398.0</ele><time>2026-05-01T11:26:15Z</time></trkpt><trkpt lat="42.20582261340356" lon="14.210652361838454"><ele>398.0</ele><time>2026-05-01T11:26:16Z</time></trkpt><trkpt lat="42.205914167884465" lon="14.210742487854718"><ele>398.0</ele><time>2026-05-01T11:26:17Z</time></trkpt><trkpt lat="42.205987477076505" lon="14.2108383988531"><ele>396.99999999999994</ele><time>2026-05-01T11:26:18Z</time></trkpt><trkpt lat="42.20605747947629" lon="14.210884661034358"><ele>396.0</ele><time>2026-05-01T11:26:19Z</time></trkpt><trkpt lat="42.20612602323422" lon="14.210881471284337"><ele>395.0</ele><time>2026-05-01T11:26:20Z</time></trkpt><trkpt lat="42.20620491525886" lon="14.21085808738584"><ele>394.0</ele><time>2026-05-01T11:26:21Z</time></trkpt><trkpt lat="42.206278071837396" lon="14.210841790382704"><ele>392.99999999999994</ele><time>2026-05-01T11:26:22Z</time></trkpt><trkpt lat="42.20632447390309" lon="14.21071016639537"><ele>392.0</ele><time>2026-05-01T11:26:24Z</time></trkpt><trkpt lat="42.2063950722401" lon="14.21058724751318"><ele>392.0</ele><time>2026-05-01T11:26:25Z</time></trkpt><trkpt lat="42.20646402127404" lon="14.210510219272068"><ele>392.0</ele><time>2026-05-01T11:26:26Z</time></trkpt><trkpt lat="42.20654661854933" lon="14.21048590631873"><ele>392.0</ele><time>2026-05-01T11:26:27Z</time></trkpt><trkpt lat="42.20665857844671" lon="14.210499884687081"><ele>392.0</ele><time>2026-05-01T11:26:28Z</time></trkpt><trkpt lat="42.20675469709264" lon="14.210531937516981"><ele>392.0</ele><time>2026-05-01T11:26:29Z</time></trkpt><trkpt lat="42.20680710857232" lon="14.210588975012127"><ele>389.8</ele><time>2026-05-01T11:26:30Z</time></trkpt><trkpt lat="42.206857894967904" lon="14.210673662179833"><ele>387.6</ele><time>2026-05-01T11:26:31Z</time></trkpt><trkpt lat="42.206928607862615" lon="14.210744377777418"><ele>385.40000000000003</ele><time>2026-05-01T11:26:32Z</time></trkpt><trkpt lat="42.20700766212431" lon="14.210816287513408"><ele>383.20000000000005</ele><time>2026-05-01T11:26:33Z</time></trkpt><trkpt lat="42.20709923113562" lon="14.210917922548584"><ele>381.0</ele><time>2026-05-01T11:26:34Z</time></trkpt><trkpt lat="42.20717289808304" lon="14.211032795107473"><ele>381.0</ele><time>2026-05-01T11:26:35Z</time></trkpt><trkpt lat="42.2072229580933" lon="14.211125886732038"><ele>381.0</ele><time>2026-05-01T11:26:36Z</time></trkpt><trkpt lat="42.2073332477418" lon="14.211112048415115"><ele>381.0</ele><time>2026-05-01T11:26:38Z</time></trkpt><trkpt lat="42.207418028472496" lon="14.211116974129643"><ele>381.0</ele><time>2026-05-01T11:26:39Z</time></trkpt><trkpt lat="42.20749261931403" lon="14.211169743934832"><ele>381.0</ele><time>2026-05-01T11:26:40Z</time></trkpt><trkpt lat="42.207561022252676" lon="14.211214164936454"><ele>381.0</ele><time>2026-05-01T11:26:41Z</time></trkpt><trkpt lat="42.207635016933246" lon="14.2112053712642"><ele>381.0</ele><time>2026-05-01T11:26:42.001Z</time></trkpt><trkpt lat="42.2077256476017" lon="14.211186592042303"><ele>381.0</ele><time>2026-05-01T11:26:43.001Z</time></trkpt><trkpt lat="42.20779548038674" lon="14.21120848352185"><ele>381.0</ele><time>2026-05-01T11:26:44.001Z</time></trkpt><trkpt lat="42.2078548590596" lon="14.211273099096193"><ele>381.0</ele><time>2026-05-01T11:26:45.001Z</time></trkpt><trkpt lat="42.20793056821291" lon="14.211326563304969"><ele>381.0</ele><time>2026-05-01T11:26:46.001Z</time></trkpt><trkpt lat="42.20803200209005" lon="14.211357065344677"><ele>381.0</ele><time>2026-05-01T11:26:47.001Z</time></trkpt><trkpt lat="42.20813944434209" lon="14.211400358692572"><ele>380.6</ele><time>2026-05-01T11:26:48.001Z</time></trkpt><trkpt lat="42.20823996797054" lon="14.211458437966817"><ele>380.20000000000005</ele><time>2026-05-01T11:26:49.001Z</time></trkpt><trkpt lat="42.2083427900559" lon="14.211514938335322"><ele>379.79999999999995</ele><time>2026-05-01T11:26:50.001Z</time></trkpt><trkpt lat="42.20843817149491" lon="14.211554511832377"><ele>379.4</ele><time>2026-05-01T11:26:51.001Z</time></trkpt><trkpt lat="42.20854332816" lon="14.211525360778014"><ele>379.0</ele><time>2026-05-01T11:26:53.001Z</time></trkpt><trkpt lat="42.208646972131056" lon="14.211489791262148"><ele>377.66666666666663</ele><time>2026-05-01T11:26:54.001Z</time></trkpt><trkpt lat="42.20874301109472" lon="14.211515686374547"><ele>376.3333333333333</ele><time>2026-05-01T11:26:55.001Z</time></trkpt><trkpt lat="42.20881563990121" lon="14.211567222174093"><ele>375.0</ele><time>2026-05-01T11:26:56.001Z</time></trkpt><trkpt lat="42.20886112566756" lon="14.211627376273801"><ele>373.6666666666667</ele><time>2026-05-01T11:26:57.001Z</time></trkpt><trkpt lat="42.20891623155302" lon="14.21175136819973"><ele>372.33333333333337</ele><time>2026-05-01T11:26:59Z</time></trkpt><trkpt lat="42.208953671843844" lon="14.21185467863347"><ele>371.0</ele><time>2026-05-01T11:27:01Z</time></trkpt><trkpt lat="42.2090789573388" lon="14.211973368773345"><ele>370.8</ele><time>2026-05-01T11:27:03Z</time></trkpt><trkpt lat="42.209184319471014" lon="14.212039736315765"><ele>370.6</ele><time>2026-05-01T11:27:04Z</time></trkpt><trkpt lat="42.209281332477225" lon="14.212087733707577"><ele>370.4</ele><time>2026-05-01T11:27:05Z</time></trkpt><trkpt lat="42.20935393054852" lon="14.212113423219336"><ele>370.2</ele><time>2026-05-01T11:27:06Z</time></trkpt><trkpt lat="42.209414581689586" lon="14.212139890442561"><ele>370.0</ele><time>2026-05-01T11:27:07Z</time></trkpt><trkpt lat="42.20953233870356" lon="14.212190735643707"><ele>370.0</ele><time>2026-05-01T11:27:09Z</time></trkpt><trkpt lat="42.20960048621087" lon="14.212215959975277"><ele>370.0</ele><time>2026-05-01T11:27:10Z</time></trkpt><trkpt lat="42.209669050459546" lon="14.212238851997254"><ele>370.0</ele><time>2026-05-01T11:27:11Z</time></trkpt><trkpt lat="42.20978102712059" lon="14.212289335545501"><ele>370.0</ele><time>2026-05-01T11:27:13Z</time></trkpt><trkpt lat="42.20985879678733" lon="14.212252334733511"><ele>370.0</ele><time>2026-05-01T11:27:16Z</time></trkpt><trkpt lat="42.209933746177235" lon="14.212229356639144"><ele>370.0</ele><time>2026-05-01T11:27:20Z</time></trkpt><trkpt lat="42.2099570463703" lon="14.21235971510891"><ele>369.2</ele><time>2026-05-01T11:27:22Z</time></trkpt><trkpt lat="42.209925504712025" lon="14.212511892804853"><ele>368.4</ele><time>2026-05-01T11:27:23Z</time></trkpt><trkpt lat="42.209873041776035" lon="14.212651234035892"><ele>367.6</ele><time>2026-05-01T11:27:24Z</time></trkpt><trkpt lat="42.209804948888575" lon="14.212747603710522"><ele>366.8</ele><time>2026-05-01T11:27:25Z</time></trkpt><trkpt lat="42.20970908317214" lon="14.212778083121236"><ele>366.0</ele><time>2026-05-01T11:27:26Z</time></trkpt><trkpt lat="42.20964980821553" lon="14.212830046665358"><ele>366.0</ele><time>2026-05-01T11:27:27Z</time></trkpt><trkpt lat="42.20959928893465" lon="14.2128942406741"><ele>366.0</ele><time>2026-05-01T11:27:28Z</time></trkpt><trkpt lat="42.20956736794128" lon="14.212983944901037"><ele>366.0</ele><time>2026-05-01T11:27:29Z</time></trkpt><trkpt lat="42.20955633191342" lon="14.213094200537794"><ele>366.0</ele><time>2026-05-01T11:27:30Z</time></trkpt><trkpt lat="42.20957270801639" lon="14.213209767801306"><ele>366.0</ele><time>2026-05-01T11:27:31Z</time></trkpt><trkpt lat="42.209621452325415" lon="14.213311851800468"><ele>366.0</ele><time>2026-05-01T11:27:32Z</time></trkpt><trkpt lat="42.209692498035885" lon="14.213401236553493"><ele>366.0</ele><time>2026-05-01T11:27:33Z</time></trkpt><trkpt lat="42.20974046843873" lon="14.213551782354097"><ele>366.0</ele><time>2026-05-01T11:27:34Z</time></trkpt><trkpt lat="42.20981998215321" lon="14.213757243037566"><ele>366.0</ele><time>2026-05-01T11:27:35Z</time></trkpt><trkpt lat="42.20982457879787" lon="14.214016695610715"><ele>364.0</ele><time>2026-05-01T11:27:36Z</time></trkpt><trkpt lat="42.209859016336246" lon="14.214181732919087"><ele>362.0</ele><time>2026-05-01T11:27:37Z</time></trkpt><trkpt lat="42.209934385719194" lon="14.21428082014723"><ele>360.0</ele><time>2026-05-01T11:27:38Z</time></trkpt><trkpt lat="42.21004860405856" lon="14.214349939652308"><ele>358.0</ele><time>2026-05-01T11:27:39Z</time></trkpt><trkpt lat="42.21015978798543" lon="14.214408170579587"><ele>358.0</ele><time>2026-05-01T11:27:40Z</time></trkpt><trkpt lat="42.21024160083388" lon="14.214524428242141"><ele>358.0</ele><time>2026-05-01T11:27:41Z</time></trkpt><trkpt lat="42.2102620858598" lon="14.214677810403119"><ele>358.0</ele><time>2026-05-01T11:27:42Z</time></trkpt><trkpt lat="42.2102338427615" lon="14.214817512518774"><ele>358.0</ele><time>2026-05-01T11:27:43Z</time></trkpt><trkpt lat="42.21020145961957" lon="14.214909764934328"><ele>358.0</ele><time>2026-05-01T11:27:44Z</time></trkpt><trkpt lat="42.21016076729546" lon="14.214979209331524"><ele>359.79999999999995</ele><time>2026-05-01T11:27:47Z</time></trkpt><trkpt lat="42.21004718165278" lon="14.21494040219851"><ele>361.6</ele><time>2026-05-01T11:27:49Z</time></trkpt><trkpt lat="42.20996251361123" lon="14.214980963678"><ele>363.4</ele><time>2026-05-01T11:27:50Z</time></trkpt><trkpt lat="42.209887452022215" lon="14.214982722724807"><ele>365.20000000000005</ele><time>2026-05-01T11:27:51Z</time></trkpt><trkpt lat="42.20981249488323" lon="14.215027329347777"><ele>367.0</ele><time>2026-05-01T11:27:52Z</time></trkpt><trkpt lat="42.209715717060796" lon="14.215062845445793"><ele>369.75</ele><time>2026-05-01T11:27:53Z</time></trkpt><trkpt lat="42.2095756807749" lon="14.214936270941658"><ele>372.5</ele><time>2026-05-01T11:27:54Z</time></trkpt><trkpt lat="42.209465034768996" lon="14.214912803249822"><ele>375.25</ele><time>2026-05-01T11:27:55Z</time></trkpt><trkpt lat="42.20937065207121" lon="14.214909636213166"><ele>378.0</ele><time>2026-05-01T11:27:56Z</time></trkpt><trkpt lat="42.20925780921793" lon="14.214899689698115"><ele>378.0</ele><time>2026-05-01T11:27:57Z</time></trkpt><trkpt lat="42.20914603669708" lon="14.214890064091701"><ele>378.0</ele><time>2026-05-01T11:27:58Z</time></trkpt><trkpt lat="42.20905162702907" lon="14.214864799583042"><ele>378.0</ele><time>2026-05-01T11:27:59Z</time></trkpt><trkpt lat="42.20898750447091" lon="14.21483321936412"><ele>378.0</ele><time>2026-05-01T11:28:00Z</time></trkpt><trkpt lat="42.2089284378189" lon="14.21478930891607"><ele>378.0</ele><time>2026-05-01T11:28:01Z</time></trkpt><trkpt lat="42.20889144203523" lon="14.214714603149243"><ele>378.0</ele><time>2026-05-01T11:28:02Z</time></trkpt><trkpt lat="42.208862117424346" lon="14.214605555284068"><ele>378.0</ele><time>2026-05-01T11:28:04Z</time></trkpt><trkpt lat="42.208832345748284" lon="14.214456150825223"><ele>378.0</ele><time>2026-05-01T11:28:06Z</time></trkpt><trkpt lat="42.20881848268059" lon="14.214273631766078"><ele>378.0</ele><time>2026-05-01T11:28:08Z</time></trkpt><trkpt lat="42.208804258151545" lon="14.214162689294199"><ele>378.0</ele><time>2026-05-01T11:28:09Z</time></trkpt><trkpt lat="42.20880755350927" lon="14.214065555425309"><ele>378.0</ele><time>2026-05-01T11:28:10Z</time></trkpt><trkpt lat="42.20878168551354" lon="14.213930165129785"><ele>378.0</ele><time>2026-05-01T11:28:12Z</time></trkpt><trkpt lat="42.20869510710641" lon="14.213829688985886"><ele>378.0</ele><time>2026-05-01T11:28:14Z</time></trkpt><trkpt lat="42.208621550081695" lon="14.213767907063499"><ele>378.0</ele><time>2026-05-01T11:28:15Z</time></trkpt><trkpt lat="42.20853163033104" lon="14.213681202213131"><ele>378.0</ele><time>2026-05-01T11:28:16Z</time></trkpt><trkpt lat="42.20843232144546" lon="14.21358424492258"><ele>378.0</ele><time>2026-05-01T11:28:17Z</time></trkpt><trkpt lat="42.20835986694138" lon="14.213490636686023"><ele>378.0</ele><time>2026-05-01T11:28:18Z</time></trkpt><trkpt lat="42.20831534484895" lon="14.213418592874637"><ele>378.0</ele><time>2026-05-01T11:28:19Z</time></trkpt><trkpt lat="42.20826455206843" lon="14.213366046955018"><ele>378.0</ele><time>2026-05-01T11:28:20Z</time></trkpt><trkpt lat="42.208190799432856" lon="14.213326860613757"><ele>378.0</ele><time>2026-05-01T11:28:21Z</time></trkpt><trkpt lat="42.20808734155191" lon="14.213309823138141"><ele>378.0</ele><time>2026-05-01T11:28:23.001Z</time></trkpt><trkpt lat="42.207944328463405" lon="14.213293140833128"><ele>380.1666666666667</ele><time>2026-05-01T11:28:25.001Z</time></trkpt><trkpt lat="42.20787077250726" lon="14.213288290005174"><ele>382.33333333333337</ele><time>2026-05-01T11:28:26.001Z</time></trkpt><trkpt lat="42.20780631396677" lon="14.213299262282337"><ele>384.5</ele><time>2026-05-01T11:28:27.001Z</time></trkpt><trkpt lat="42.20768659176505" lon="14.213286877812546"><ele>386.6666666666667</ele><time>2026-05-01T11:28:29.001Z</time></trkpt><trkpt lat="42.207631106457285" lon="14.213240667550572"><ele>388.83333333333337</ele><time>2026-05-01T11:28:30.001Z</time></trkpt><trkpt lat="42.20752882263984" lon="14.213179963106374"><ele>391.0</ele><time>2026-05-01T11:28:32.001Z</time></trkpt><trkpt lat="42.207404623647406" lon="14.213194573676724"><ele>392.83333333333337</ele><time>2026-05-01T11:28:34.001Z</time></trkpt><trkpt lat="42.207287923373755" lon="14.213209613753364"><ele>394.6666666666667</ele><time>2026-05-01T11:28:36.001Z</time></trkpt><trkpt lat="42.20721049401678" lon="14.21325164762115"><ele>396.5</ele><time>2026-05-01T11:28:38.001Z</time></trkpt><trkpt lat="42.207122505799354" lon="14.213343716698507"><ele>398.33333333333337</ele><time>2026-05-01T11:28:40.001Z</time></trkpt><trkpt lat="42.20705935228509" lon="14.213365018327645"><ele>400.1666666666667</ele><time>2026-05-01T11:28:41.001Z</time></trkpt><trkpt lat="42.206990113681044" lon="14.213346846029435"><ele>402.0</ele><time>2026-05-01T11:28:42.001Z</time></trkpt><trkpt lat="42.206922618536915" lon="14.213333502331949"><ele>402.0</ele><time>2026-05-01T11:28:43.001Z</time></trkpt><trkpt lat="42.206803930694484" lon="14.21334108387239"><ele>402.0</ele><time>2026-05-01T11:28:45.001Z</time></trkpt><trkpt lat="42.206684491308145" lon="14.213392514081649"><ele>402.0</ele><time>2026-05-01T11:28:47.001Z</time></trkpt><trkpt lat="42.20661791802656" lon="14.213421879030317"><ele>402.0</ele><time>2026-05-01T11:28:48.001Z</time></trkpt><trkpt lat="42.20654775770438" lon="14.213450215531752"><ele>402.0</ele><time>2026-05-01T11:28:49.001Z</time></trkpt><trkpt lat="42.20644063514604" lon="14.213484053344418"><ele>403.3333333333333</ele><time>2026-05-01T11:28:51.001Z</time></trkpt><trkpt lat="42.206377072485374" lon="14.213480009306021"><ele>404.66666666666663</ele><time>2026-05-01T11:28:52.001Z</time></trkpt><trkpt lat="42.20631315364296" lon="14.213456184512031"><ele>406.0</ele><time>2026-05-01T11:28:53.001Z</time></trkpt><trkpt lat="42.206249966763366" lon="14.213438843197208"><ele>407.3333333333333</ele><time>2026-05-01T11:28:54.001Z</time></trkpt><trkpt lat="42.20616972802319" lon="14.2134034027146"><ele>408.66666666666663</ele><time>2026-05-01T11:28:56.001Z</time></trkpt><trkpt lat="42.20605268272618" lon="14.21342567982176"><ele>410.0</ele><time>2026-05-01T11:28:58.001Z</time></trkpt><trkpt lat="42.20593740645793" lon="14.213457102564183"><ele>410.0</ele><time>2026-05-01T11:29:00.001Z</time></trkpt><trkpt lat="42.20580845658644" lon="14.21348346172651"><ele>410.0</ele><time>2026-05-01T11:29:02.001Z</time></trkpt><trkpt lat="42.205717130386525" lon="14.213471986076867"><ele>410.0</ele><time>2026-05-01T11:29:03.001Z</time></trkpt><trkpt lat="42.20562929008165" lon="14.21344759519823"><ele>410.0</ele><time>2026-05-01T11:29:04.001Z</time></trkpt><trkpt lat="42.20555302418976" lon="14.21342962973869"><ele>410.0</ele><time>2026-05-01T11:29:05Z</time></trkpt><trkpt lat="42.20542391920588" lon="14.213433335510677"><ele>410.8333333333333</ele><time>2026-05-01T11:29:07Z</time></trkpt><trkpt lat="42.20532704413674" lon="14.213439266342352"><ele>411.66666666666663</ele><time>2026-05-01T11:29:08Z</time></trkpt><trkpt lat="42.20524387437524" lon="14.21343890610739"><ele>412.5</ele><time>2026-05-01T11:29:09Z</time></trkpt><trkpt lat="42.2051721595479" lon="14.21343954113885"><ele>413.33333333333337</ele><time>2026-05-01T11:29:10Z</time></trkpt><trkpt lat="42.20505443003915" lon="14.213431304186823"><ele>414.1666666666667</ele><time>2026-05-01T11:29:12Z</time></trkpt><trkpt lat="42.20499046537328" lon="14.213431983091102"><ele>415.0</ele><time>2026-05-01T11:29:13Z</time></trkpt><trkpt lat="42.20489478934831" lon="14.21342181788595"><ele>416.4</ele><time>2026-05-01T11:29:15Z</time></trkpt><trkpt lat="42.20479343961899" lon="14.213424990235604"><ele>417.8</ele><time>2026-05-01T11:29:17Z</time></trkpt><trkpt lat="42.20467911894364" lon="14.21346991573336"><ele>419.20000000000005</ele><time>2026-05-01T11:29:19Z</time></trkpt><trkpt lat="42.204592716043535" lon="14.213511537562521"><ele>420.6</ele><time>2026-05-01T11:29:21Z</time></trkpt><trkpt lat="42.20448988933351" lon="14.21354315546576"><ele>422.0</ele><time>2026-05-01T11:29:23Z</time></trkpt><trkpt lat="42.20438687578635" lon="14.213563333056515"><ele>422.0</ele><time>2026-05-01T11:29:25Z</time></trkpt><trkpt lat="42.20426945372534" lon="14.213560702554098"><ele>422.0</ele><time>2026-05-01T11:29:27Z</time></trkpt><trkpt lat="42.20415664946611" lon="14.213565765692135"><ele>422.0</ele><time>2026-05-01T11:29:29Z</time></trkpt><trkpt lat="42.204053487570576" lon="14.213555287529982"><ele>422.0</ele><time>2026-05-01T11:29:31Z</time></trkpt><trkpt lat="42.20398892213913" lon="14.213544846814989"><ele>422.0</ele><time>2026-05-01T11:29:32Z</time></trkpt><trkpt lat="42.20391324557057" lon="14.213542839873782"><ele>423.49999999999994</ele><time>2026-05-01T11:29:33Z</time></trkpt><trkpt lat="42.203840477858776" lon="14.213549395519339"><ele>425.0</ele><time>2026-05-01T11:29:34Z</time></trkpt><trkpt lat="42.20376794981236" lon="14.213564666985993"><ele>426.5</ele><time>2026-05-01T11:29:35Z</time></trkpt><trkpt lat="42.20368380481823" lon="14.213585485739877"><ele>428.0</ele><time>2026-05-01T11:29:36Z</time></trkpt><trkpt lat="42.20361628946188" lon="14.213586441137213"><ele>429.49999999999994</ele><time>2026-05-01T11:29:37Z</time></trkpt><trkpt lat="42.20351150264001" lon="14.213595318484819"><ele>431.0</ele><time>2026-05-01T11:29:39Z</time></trkpt><trkpt lat="42.20341283108757" lon="14.213554199798137"><ele>430.99999999999994</ele><time>2026-05-01T11:29:41Z</time></trkpt><trkpt lat="42.203295791608994" lon="14.213532429905985"><ele>431.0</ele><time>2026-05-01T11:29:43Z</time></trkpt><trkpt lat="42.20323055767592" lon="14.213531607402265"><ele>431.0</ele><time>2026-05-01T11:29:44Z</time></trkpt><trkpt lat="42.20316257150025" lon="14.21353280259869"><ele>431.0</ele><time>2026-05-01T11:29:45Z</time></trkpt><trkpt lat="42.203093524521215" lon="14.213534884897106"><ele>430.99999999999994</ele><time>2026-05-01T11:29:46Z</time></trkpt><trkpt lat="42.20301792633148" lon="14.213531775973204"><ele>431.0</ele><time>2026-05-01T11:29:47Z</time></trkpt><trkpt lat="42.20293893815623" lon="14.213532517573354"><ele>432.49999999999994</ele><time>2026-05-01T11:29:48Z</time></trkpt><trkpt lat="42.20286513359481" lon="14.21353275167012"><ele>434.0</ele><time>2026-05-01T11:29:49Z</time></trkpt><trkpt lat="42.202801598024365" lon="14.213532639072932"><ele>435.5</ele><time>2026-05-01T11:29:50Z</time></trkpt><trkpt lat="42.20273234120454" lon="14.213522064731603"><ele>437.0</ele><time>2026-05-01T11:29:51Z</time></trkpt><trkpt lat="42.20265231418399" lon="14.213509602107068"><ele>438.49999999999994</ele><time>2026-05-01T11:29:52Z</time></trkpt><trkpt lat="42.202567668516956" lon="14.213494631563833"><ele>440.0</ele><time>2026-05-01T11:29:53Z</time></trkpt><trkpt lat="42.20248686432838" lon="14.213484679151062"><ele>439.99999999999994</ele><time>2026-05-01T11:29:54Z</time></trkpt><trkpt lat="42.20241774877363" lon="14.213471153968694"><ele>440.0</ele><time>2026-05-01T11:29:55Z</time></trkpt><trkpt lat="42.202289119051436" lon="14.213457326607463"><ele>440.0</ele><time>2026-05-01T11:29:57Z</time></trkpt><trkpt lat="42.20221529225293" lon="14.213457064014248"><ele>440.0</ele><time>2026-05-01T11:29:58Z</time></trkpt><trkpt lat="42.2021456966393" lon="14.213464356625163"><ele>439.99999999999994</ele><time>2026-05-01T11:29:59Z</time></trkpt><trkpt lat="42.20208261649355" lon="14.21348547807313"><ele>440.0</ele><time>2026-05-01T11:30:00Z</time></trkpt><trkpt lat="42.20201559293553" lon="14.213508925555756"><ele>442.3333333333333</ele><time>2026-05-01T11:30:01Z</time></trkpt><trkpt lat="42.2019515461821" lon="14.213528937766652"><ele>444.66666666666663</ele><time>2026-05-01T11:30:02Z</time></trkpt><trkpt lat="42.201884483880264" lon="14.213555321605355"><ele>447.0</ele><time>2026-05-01T11:30:03Z</time></trkpt><trkpt lat="42.201759825631356" lon="14.213585772523441"><ele>449.33333333333337</ele><time>2026-05-01T11:30:05Z</time></trkpt><trkpt lat="42.201685945207274" lon="14.213596695539483"><ele>451.6666666666667</ele><time>2026-05-01T11:30:06Z</time></trkpt><trkpt lat="42.20161571189462" lon="14.213600919278246"><ele>454.0</ele><time>2026-05-01T11:30:07Z</time></trkpt><trkpt lat="42.20154202062782" lon="14.213598349983542"><ele>455.6666666666667</ele><time>2026-05-01T11:30:08Z</time></trkpt><trkpt lat="42.20147839501654" lon="14.213596802449672"><ele>457.33333333333337</ele><time>2026-05-01T11:30:09Z</time></trkpt><trkpt lat="42.20140882723385" lon="14.213597463389835"><ele>459.0</ele><time>2026-05-01T11:30:10Z</time></trkpt><trkpt lat="42.20133071416706" lon="14.213600203792993"><ele>460.66666666666663</ele><time>2026-05-01T11:30:11Z</time></trkpt><trkpt lat="42.2012510730238" lon="14.213605829685717"><ele>462.3333333333333</ele><time>2026-05-01T11:30:12Z</time></trkpt><trkpt lat="42.2011683752426" lon="14.213595380595553"><ele>464.0</ele><time>2026-05-01T11:30:13Z</time></trkpt><trkpt lat="42.20107238708514" lon="14.213573448494007"><ele>463.99999999999994</ele><time>2026-05-01T11:30:14Z</time></trkpt><trkpt lat="42.20096966122079" lon="14.213551935340963"><ele>464.0</ele><time>2026-05-01T11:30:15Z</time></trkpt><trkpt lat="42.20088326887704" lon="14.213522878335818"><ele>464.0</ele><time>2026-05-01T11:30:16Z</time></trkpt><trkpt lat="42.20080366003538" lon="14.213491186058146"><ele>464.0</ele><time>2026-05-01T11:30:17Z</time></trkpt><trkpt lat="42.20073492531095" lon="14.213471463663671"><ele>463.99999999999994</ele><time>2026-05-01T11:30:18Z</time></trkpt><trkpt lat="42.20065597832671" lon="14.213449936608145"><ele>464.0</ele><time>2026-05-01T11:30:19Z</time></trkpt><trkpt lat="42.20057681488387" lon="14.213441576879044"><ele>463.8333333333333</ele><time>2026-05-01T11:30:20Z</time></trkpt><trkpt lat="42.20049127150546" lon="14.213444428757152"><ele>463.66666666666663</ele><time>2026-05-01T11:30:21.001Z</time></trkpt><trkpt lat="42.2003965906603" lon="14.213457930143282"><ele>463.5</ele><time>2026-05-01T11:30:22.001Z</time></trkpt><trkpt lat="42.20029718959161" lon="14.21344673384292"><ele>463.33333333333337</ele><time>2026-05-01T11:30:23.001Z</time></trkpt><trkpt lat="42.20021362231385" lon="14.213419750264299"><ele>463.1666666666667</ele><time>2026-05-01T11:30:24.001Z</time></trkpt><trkpt lat="42.200142800133165" lon="14.213406097478213"><ele>463.0</ele><time>2026-05-01T11:30:25.001Z</time></trkpt><trkpt lat="42.20007587028398" lon="14.213416968964768"><ele>463.00000000000006</ele><time>2026-05-01T11:30:26.001Z</time></trkpt><trkpt lat="42.199997509137745" lon="14.213438817469282"><ele>463.0</ele><time>2026-05-01T11:30:27.001Z</time></trkpt><trkpt lat="42.199922185860295" lon="14.213468106618054"><ele>463.0</ele><time>2026-05-01T11:30:28.001Z</time></trkpt><trkpt lat="42.19985640507682" lon="14.213516086808626"><ele>463.0</ele><time>2026-05-01T11:30:29.001Z</time></trkpt><trkpt lat="42.19978141248853" lon="14.213580767659936"><ele>463.00000000000006</ele><time>2026-05-01T11:30:30.001Z</time></trkpt><trkpt lat="42.199712714360125" lon="14.213647336195153"><ele>463.0</ele><time>2026-05-01T11:30:31.001Z</time></trkpt><trkpt lat="42.19964227268985" lon="14.213710612887846"><ele>464.33333333333337</ele><time>2026-05-01T11:30:32.001Z</time></trkpt><trkpt lat="42.19958359005247" lon="14.213789135812952"><ele>465.6666666666667</ele><time>2026-05-01T11:30:33.001Z</time></trkpt><trkpt lat="42.199533383169644" lon="14.213854314797997"><ele>467.0</ele><time>2026-05-01T11:30:34.001Z</time></trkpt><trkpt lat="42.19948170801762" lon="14.21390773291246"><ele>468.33333333333337</ele><time>2026-05-01T11:30:35.001Z</time></trkpt><trkpt lat="42.19942302701375" lon="14.213950794122313"><ele>469.6666666666667</ele><time>2026-05-01T11:30:36.001Z</time></trkpt><trkpt lat="42.19934492800708" lon="14.213988883055249"><ele>471.0</ele><time>2026-05-01T11:30:37.001Z</time></trkpt><trkpt lat="42.1992605252951" lon="14.21400546424604"><ele>471.0</ele><time>2026-05-01T11:30:38.001Z</time></trkpt><trkpt lat="42.19918659037775" lon="14.214049166797128"><ele>471.0</ele><time>2026-05-01T11:30:39.001Z</time></trkpt><trkpt lat="42.1991260335743" lon="14.21412228546749"><ele>471.0</ele><time>2026-05-01T11:30:40.001Z</time></trkpt><trkpt lat="42.19905675370367" lon="14.214197966376004"><ele>471.0</ele><time>2026-05-01T11:30:41.001Z</time></trkpt><trkpt lat="42.199002324307685" lon="14.21427072492498"><ele>471.0</ele><time>2026-05-01T11:30:42.001Z</time></trkpt><trkpt lat="42.198941754987686" lon="14.214349372044188"><ele>471.0</ele><time>2026-05-01T11:30:43.001Z</time></trkpt><trkpt lat="42.19888920012148" lon="14.214420863843378"><ele>470.8571428571429</ele><time>2026-05-01T11:30:44.001Z</time></trkpt><trkpt lat="42.19882811604459" lon="14.214504071224352"><ele>470.7142857142857</ele><time>2026-05-01T11:30:45.001Z</time></trkpt><trkpt lat="42.1987809064352" lon="14.214589432530673"><ele>470.57142857142856</ele><time>2026-05-01T11:30:46.001Z</time></trkpt><trkpt lat="42.19874629684764" lon="14.214675784463195"><ele>470.42857142857144</ele><time>2026-05-01T11:30:47.001Z</time></trkpt><trkpt lat="42.19871098466186" lon="14.214758301314452"><ele>470.2857142857142</ele><time>2026-05-01T11:30:48.001Z</time></trkpt><trkpt lat="42.1986616994127" lon="14.214822792683414"><ele>470.1428571428571</ele><time>2026-05-01T11:30:49.001Z</time></trkpt><trkpt lat="42.19860845316972" lon="14.214868845526395"><ele>470.0</ele><time>2026-05-01T11:30:50.001Z</time></trkpt><trkpt lat="42.19852328695989" lon="14.21495208432795"><ele>470.0</ele><time>2026-05-01T11:30:52.001Z</time></trkpt><trkpt lat="42.198450447406884" lon="14.215107595037829"><ele>470.0</ele><time>2026-05-01T11:30:54.001Z</time></trkpt><trkpt lat="42.1983950339251" lon="14.215165469338178"><ele>470.0</ele><time>2026-05-01T11:30:55.001Z</time></trkpt><trkpt lat="42.19828842085377" lon="14.215193290037911"><ele>470.0</ele><time>2026-05-01T11:30:57.001Z</time></trkpt><trkpt lat="42.1981759555762" lon="14.215241387210007"><ele>470.0</ele><time>2026-05-01T11:30:59.001Z</time></trkpt><trkpt lat="42.19811209018557" lon="14.215340089094566"><ele>470.99999999999994</ele><time>2026-05-01T11:31:01.001Z</time></trkpt><trkpt lat="42.1980711093055" lon="14.215423643100165"><ele>472.0</ele><time>2026-05-01T11:31:03.001Z</time></trkpt><trkpt lat="42.198027272078654" lon="14.215504706404886"><ele>473.0</ele><time>2026-05-01T11:31:34Z</time></trkpt><trkpt lat="42.19802767288021" lon="14.215594215910054"><ele>474.0</ele><time>2026-05-01T11:31:36Z</time></trkpt><trkpt lat="42.19802231926476" lon="14.215724121356185"><ele>474.99999999999994</ele><time>2026-05-01T11:31:40Z</time></trkpt><trkpt lat="42.19800452486123" lon="14.215822973676266"><ele>476.0</ele><time>2026-05-01T11:31:52Z</time></trkpt><trkpt lat="42.19795290866335" lon="14.215966142907256"><ele>476.0</ele><time>2026-05-01T11:31:54Z</time></trkpt><trkpt lat="42.197883974419696" lon="14.216046938839606"><ele>476.0</ele><time>2026-05-01T11:31:55Z</time></trkpt><trkpt lat="42.1977949140301" lon="14.216117097344231"><ele>476.0</ele><time>2026-05-01T11:31:56Z</time></trkpt><trkpt lat="42.19774988226313" lon="14.216198389917748"><ele>476.0</ele><time>2026-05-01T11:31:57Z</time></trkpt><trkpt lat="42.197692112935535" lon="14.2162851157173"><ele>476.0</ele><time>2026-05-01T11:31:58Z</time></trkpt><trkpt lat="42.19761915136162" lon="14.21641764485804"><ele>479.8</ele><time>2026-05-01T11:31:59Z</time></trkpt><trkpt lat="42.197543062655754" lon="14.216535208585274"><ele>483.6</ele><time>2026-05-01T11:32:00Z</time></trkpt><trkpt lat="42.197519300614054" lon="14.216614003963006"><ele>487.4</ele><time>2026-05-01T11:32:03Z</time></trkpt><trkpt lat="42.19753210470213" lon="14.216729972301687"><ele>491.2</ele><time>2026-05-01T11:32:11Z</time></trkpt><trkpt lat="42.197473928942976" lon="14.21681530077627"><ele>495.0</ele><time>2026-05-01T11:32:12Z</time></trkpt><trkpt lat="42.19742840106988" lon="14.216935506346058"><ele>495.0</ele><time>2026-05-01T11:32:14Z</time></trkpt><trkpt lat="42.1974115262811" lon="14.21703057609678"><ele>495.0</ele><time>2026-05-01T11:32:17Z</time></trkpt><trkpt lat="42.19733735280071" lon="14.217027230726249"><ele>495.0</ele><time>2026-05-01T11:32:20Z</time></trkpt><trkpt lat="42.19720712233133" lon="14.217064237585866"><ele>495.0</ele><time>2026-05-01T11:34:23Z</time></trkpt><trkpt lat="42.19709729888206" lon="14.21709402860309"><ele>495.0</ele><time>2026-05-01T11:34:45.001Z</time></trkpt><trkpt lat="42.197013517737446" lon="14.217118187515178"><ele>494.8</ele><time>2026-05-01T11:34:46.001Z</time></trkpt><trkpt lat="42.19692549907356" lon="14.217142255812037"><ele>494.6</ele><time>2026-05-01T11:34:47.001Z</time></trkpt><trkpt lat="42.19682509315168" lon="14.2171612950709"><ele>494.4</ele><time>2026-05-01T11:34:48.001Z</time></trkpt><trkpt lat="42.19671352015647" lon="14.217183433190376"><ele>494.2</ele><time>2026-05-01T11:34:49.001Z</time></trkpt><trkpt lat="42.19660568695943" lon="14.217200853973596"><ele>494.0</ele><time>2026-05-01T11:34:50.001Z</time></trkpt><trkpt lat="42.19650827019901" lon="14.217251858229442"><ele>494.99999999999994</ele><time>2026-05-01T11:34:51.001Z</time></trkpt><trkpt lat="42.196436866567545" lon="14.217303442756988"><ele>496.0</ele><time>2026-05-01T11:34:52.001Z</time></trkpt><trkpt lat="42.19634196132434" lon="14.217340477046456"><ele>497.0</ele><time>2026-05-01T11:34:53.001Z</time></trkpt><trkpt lat="42.196260619688815" lon="14.217376220099279"><ele>498.0</ele><time>2026-05-01T11:34:54.001Z</time></trkpt><trkpt lat="42.1961800887696" lon="14.217396404816498"><ele>498.99999999999994</ele><time>2026-05-01T11:34:55.001Z</time></trkpt><trkpt lat="42.19609730601635" lon="14.217422758209805"><ele>500.0</ele><time>2026-05-01T11:34:56.001Z</time></trkpt><trkpt lat="42.19601733689589" lon="14.217456087773684"><ele>501.66666666666663</ele><time>2026-05-01T11:34:57.001Z</time></trkpt><trkpt lat="42.195938455905754" lon="14.217480060071978"><ele>503.3333333333333</ele><time>2026-05-01T11:34:58.001Z</time></trkpt><trkpt lat="42.19586298743523" lon="14.217509758091564"><ele>505.0</ele><time>2026-05-01T11:34:59.001Z</time></trkpt><trkpt lat="42.195783686990175" lon="14.217521931049424"><ele>506.66666666666663</ele><time>2026-05-01T11:35:00.001Z</time></trkpt><trkpt lat="42.195720948660785" lon="14.217564155987494"><ele>508.3333333333333</ele><time>2026-05-01T11:35:01.001Z</time></trkpt><trkpt lat="42.19563817929523" lon="14.217570201109826"><ele>510.0</ele><time>2026-05-01T11:35:02.001Z</time></trkpt><trkpt lat="42.195557830322784" lon="14.21759980245145"><ele>510.8</ele><time>2026-05-01T11:35:03.001Z</time></trkpt><trkpt lat="42.19547641646508" lon="14.21763522283359"><ele>511.6</ele><time>2026-05-01T11:35:04.001Z</time></trkpt><trkpt lat="42.195395986851665" lon="14.217706326848374"><ele>512.4</ele><time>2026-05-01T11:35:05.001Z</time></trkpt><trkpt lat="42.195310385414906" lon="14.217770218747743"><ele>513.2</ele><time>2026-05-01T11:35:06.001Z</time></trkpt><trkpt lat="42.195223778936054" lon="14.217849748153647"><ele>514.0</ele><time>2026-05-01T11:35:07.001Z</time></trkpt><trkpt lat="42.195143686995046" lon="14.217943950232634"><ele>514.0</ele><time>2026-05-01T11:35:08.001Z</time></trkpt><trkpt lat="42.195075827815856" lon="14.218027136231301"><ele>514.0</ele><time>2026-05-01T11:35:09.001Z</time></trkpt><trkpt lat="42.195014550403805" lon="14.21810117485318"><ele>514.0</ele><time>2026-05-01T11:35:10.001Z</time></trkpt><trkpt lat="42.19494687232217" lon="14.218169048680393"><ele>514.0</ele><time>2026-05-01T11:35:11.001Z</time></trkpt><trkpt lat="42.19488444371949" lon="14.218231786265893"><ele>514.0</ele><time>2026-05-01T11:35:12.001Z</time></trkpt><trkpt lat="42.19486523644036" lon="14.21835683683361"><ele>514.0</ele><time>2026-05-01T11:35:14.001Z</time></trkpt><trkpt lat="42.19490441763412" lon="14.218489311022486"><ele>515.4</ele><time>2026-05-01T11:35:16.001Z</time></trkpt><trkpt lat="42.194837093681066" lon="14.21861370429493"><ele>516.8</ele><time>2026-05-01T11:35:18.001Z</time></trkpt><trkpt lat="42.194805234651454" lon="14.218738695942138"><ele>518.2</ele><time>2026-05-01T11:35:20.001Z</time></trkpt><trkpt lat="42.19479906033653" lon="14.21888887867769"><ele>519.6</ele><time>2026-05-01T11:35:22.001Z</time></trkpt><trkpt lat="42.19482652861242" lon="14.219037534057657"><ele>521.0</ele><time>2026-05-01T11:35:24.001Z</time></trkpt><trkpt lat="42.19485486709452" lon="14.219185256757337"><ele>521.0</ele><time>2026-05-01T11:35:26.001Z</time></trkpt><trkpt lat="42.194846897865176" lon="14.219274092118965"><ele>521.0</ele><time>2026-05-01T11:35:27.001Z</time></trkpt><trkpt lat="42.194855810854364" lon="14.219367996918693"><ele>521.0</ele><time>2026-05-01T11:35:28.001Z</time></trkpt><trkpt lat="42.19486892159669" lon="14.219524359645973"><ele>521.0</ele><time>2026-05-01T11:35:30.001Z</time></trkpt><trkpt lat="42.194882352580095" lon="14.219676503572861"><ele>521.0</ele><time>2026-05-01T11:35:32.001Z</time></trkpt><trkpt lat="42.19489016742752" lon="14.219766816647514"><ele>521.0</ele><time>2026-05-01T11:35:33.001Z</time></trkpt><trkpt lat="42.1948982822091" lon="14.219860595960142"><ele>521.6</ele><time>2026-05-01T11:35:34.001Z</time></trkpt><trkpt lat="42.19491057886705" lon="14.220017209015209"><ele>522.2</ele><time>2026-05-01T11:35:36Z</time></trkpt><trkpt lat="42.19491374629915" lon="14.220182594505825"><ele>522.8</ele><time>2026-05-01T11:35:38Z</time></trkpt><trkpt lat="42.1948956043229" lon="14.220348853383602"><ele>523.4</ele><time>2026-05-01T11:35:40Z</time></trkpt><trkpt lat="42.194877782423575" lon="14.220441564196562"><ele>524.0</ele><time>2026-05-01T11:35:41Z</time></trkpt><trkpt lat="42.19481956579735" lon="14.220505188541186"><ele>525.7142857142858</ele><time>2026-05-01T11:35:42Z</time></trkpt><trkpt lat="42.194753325264465" lon="14.220532045266717"><ele>527.4285714285714</ele><time>2026-05-01T11:35:43Z</time></trkpt><trkpt lat="42.19467641295073" lon="14.220518614171922"><ele>529.1428571428571</ele><time>2026-05-01T11:35:44Z</time></trkpt><trkpt lat="42.19460930439306" lon="14.220471134327353"><ele>530.8571428571429</ele><time>2026-05-01T11:35:45Z</time></trkpt><trkpt lat="42.19456626460088" lon="14.220395908688262"><ele>532.5714285714286</ele><time>2026-05-01T11:35:46Z</time></trkpt><trkpt lat="42.19454563105674" lon="14.220309034536902"><ele>534.2857142857143</ele><time>2026-05-01T11:35:47Z</time></trkpt><trkpt lat="42.19453101763723" lon="14.220220832626335"><ele>536.0</ele><time>2026-05-01T11:35:48Z</time></trkpt><trkpt lat="42.194500487752016" lon="14.220129124396998"><ele>536.0</ele><time>2026-05-01T11:35:49Z</time></trkpt><trkpt lat="42.194472582241836" lon="14.220035259493473"><ele>536.0</ele><time>2026-05-01T11:35:50Z</time></trkpt><trkpt lat="42.19443400333037" lon="14.219944494620052"><ele>536.0</ele><time>2026-05-01T11:35:51Z</time></trkpt><trkpt lat="42.19438288763229" lon="14.219854698626104"><ele>536.0</ele><time>2026-05-01T11:35:52Z</time></trkpt><trkpt lat="42.19431734096165" lon="14.21976838552026"><ele>536.0</ele><time>2026-05-01T11:35:53Z</time></trkpt><trkpt lat="42.19423894885986" lon="14.2196917971449"><ele>536.0</ele><time>2026-05-01T11:35:54Z</time></trkpt><trkpt lat="42.19415284020031" lon="14.219628620505299"><ele>535.2</ele><time>2026-05-01T11:35:55Z</time></trkpt><trkpt lat="42.194064091947745" lon="14.219569248767572"><ele>534.4000000000001</ele><time>2026-05-01T11:35:56Z</time></trkpt><trkpt lat="42.193972688614835" lon="14.219513029807068"><ele>533.6</ele><time>2026-05-01T11:35:57Z</time></trkpt><trkpt lat="42.193887950878185" lon="14.219451098493206"><ele>532.8000000000001</ele><time>2026-05-01T11:35:58Z</time></trkpt><trkpt lat="42.19380079880984" lon="14.219392592386576"><ele>532.0</ele><time>2026-05-01T11:35:59Z</time></trkpt><trkpt lat="42.193718368450206" lon="14.21933777965555"><ele>533.8000000000001</ele><time>2026-05-01T11:36:00Z</time></trkpt><trkpt lat="42.19363268957893" lon="14.219282418591638"><ele>535.6</ele><time>2026-05-01T11:36:01Z</time></trkpt><trkpt lat="42.19354987184163" lon="14.219235729968931"><ele>537.4000000000001</ele><time>2026-05-01T11:36:02Z</time></trkpt><trkpt lat="42.19345635421719" lon="14.219203742531384"><ele>539.2</ele><time>2026-05-01T11:36:03Z</time></trkpt><trkpt lat="42.19336677045455" lon="14.219186862227613"><ele>541.0</ele><time>2026-05-01T11:36:04Z</time></trkpt><trkpt lat="42.19327047399067" lon="14.219206375006115"><ele>541.0</ele><time>2026-05-01T11:36:05Z</time></trkpt><trkpt lat="42.1931782477973" lon="14.219262507252486"><ele>541.0</ele><time>2026-05-01T11:36:06Z</time></trkpt><trkpt lat="42.19309565365677" lon="14.219337464203365"><ele>541.0</ele><time>2026-05-01T11:36:07Z</time></trkpt><trkpt lat="42.19301897770227" lon="14.21942367345362"><ele>541.0</ele><time>2026-05-01T11:36:08Z</time></trkpt><trkpt lat="42.19296028465867" lon="14.219514183896388"><ele>541.0</ele><time>2026-05-01T11:36:09Z</time></trkpt><trkpt lat="42.19292089493219" lon="14.219612806946305"><ele>540.5</ele><time>2026-05-01T11:36:10Z</time></trkpt><trkpt lat="42.19291425821127" lon="14.219717994449814"><ele>540.0</ele><time>2026-05-01T11:36:11Z</time></trkpt><trkpt lat="42.192944228916936" lon="14.219822710119699"><ele>539.5</ele><time>2026-05-01T11:36:12Z</time></trkpt><trkpt lat="42.19299585698422" lon="14.219920824018962"><ele>539.0</ele><time>2026-05-01T11:36:13Z</time></trkpt><trkpt lat="42.19306739964887" lon="14.219996194195156"><ele>538.5</ele><time>2026-05-01T11:36:14Z</time></trkpt><trkpt lat="42.19315587902695" lon="14.220051936176677"><ele>538.0</ele><time>2026-05-01T11:36:15Z</time></trkpt><trkpt lat="42.193251995218375" lon="14.220092527537968"><ele>540.4</ele><time>2026-05-01T11:36:16Z</time></trkpt><trkpt lat="42.19334842205777" lon="14.22013134092253"><ele>542.8</ele><time>2026-05-01T11:36:17Z</time></trkpt><trkpt lat="42.19344045511635" lon="14.220185061211016"><ele>545.2</ele><time>2026-05-01T11:36:18Z</time></trkpt><trkpt lat="42.19353448562641" lon="14.220233237682773"><ele>547.6</ele><time>2026-05-01T11:36:19Z</time></trkpt><trkpt lat="42.193626838360636" lon="14.220287218584055"><ele>550.0</ele><time>2026-05-01T11:36:20Z</time></trkpt><trkpt lat="42.19371093449495" lon="14.220332525646764"><ele>550.0</ele><time>2026-05-01T11:36:21Z</time></trkpt><trkpt lat="42.193778090081956" lon="14.220378139473537"><ele>550.0</ele><time>2026-05-01T11:36:22Z</time></trkpt><trkpt lat="42.19382656977611" lon="14.220438669789651"><ele>550.0</ele><time>2026-05-01T11:36:23Z</time></trkpt><trkpt lat="42.193805552536226" lon="14.220593846221993"><ele>550.0</ele><time>2026-05-01T11:36:25Z</time></trkpt><trkpt lat="42.19373415832551" lon="14.220633661990586"><ele>550.0</ele><time>2026-05-01T11:36:26Z</time></trkpt><trkpt lat="42.19365507525729" lon="14.220591316110035"><ele>550.0</ele><time>2026-05-01T11:36:27Z</time></trkpt><trkpt lat="42.193582379545155" lon="14.220540887643395"><ele>550.0</ele><time>2026-05-01T11:36:28Z</time></trkpt><trkpt lat="42.193499904687684" lon="14.220523566341871"><ele>550.0</ele><time>2026-05-01T11:36:29Z</time></trkpt><trkpt lat="42.19343244641098" lon="14.220492527634379"><ele>550.0</ele><time>2026-05-01T11:36:30Z</time></trkpt><trkpt lat="42.19337222746011" lon="14.220460643644817"><ele>550.0</ele><time>2026-05-01T11:36:34Z</time></trkpt><trkpt lat="42.19334098497889" lon="14.22063503111294"><ele>550.0</ele><time>2026-05-01T11:36:36Z</time></trkpt><trkpt lat="42.19319536187264" lon="14.220603367181415"><ele>550.0</ele><time>2026-05-01T11:36:50.001Z</time></trkpt><trkpt lat="42.19313329853489" lon="14.220552956577858"><ele>550.0</ele><time>2026-05-01T11:36:52.001Z</time></trkpt><trkpt lat="42.193049834491404" lon="14.220562480796982"><ele>550.0</ele><time>2026-05-01T11:36:55.001Z</time></trkpt><trkpt lat="42.19314085986833" lon="14.220607309149077"><ele>550.0</ele><time>2026-05-01T11:37:01.001Z</time></trkpt><trkpt lat="42.1932434643597" lon="14.220648128453968"><ele>550.0</ele><time>2026-05-01T11:37:03.001Z</time></trkpt><trkpt lat="42.19331368799722" lon="14.22067048985063"><ele>550.0</ele><time>2026-05-01T11:37:05.001Z</time></trkpt><trkpt lat="42.19333971909932" lon="14.220769552265734"><ele>551.0</ele><time>2026-05-01T11:37:08.001Z</time></trkpt><trkpt lat="42.193322239269776" lon="14.220860698460838"><ele>552.0</ele><time>2026-05-01T11:37:09.001Z</time></trkpt><trkpt lat="42.19330726997398" lon="14.220950956155164"><ele>553.0</ele><time>2026-05-01T11:37:10.001Z</time></trkpt><trkpt lat="42.193262822011654" lon="14.221017757778808"><ele>554.0</ele><time>2026-05-01T11:37:12.001Z</time></trkpt><trkpt lat="42.19314544523654" lon="14.220997119132054"><ele>555.0</ele><time>2026-05-01T11:37:14.001Z</time></trkpt><trkpt lat="42.19306322475861" lon="14.220977844479007"><ele>556.0</ele><time>2026-05-01T11:37:15.001Z</time></trkpt><trkpt lat="42.192980386005985" lon="14.220945076644186"><ele>558.3333333333334</ele><time>2026-05-01T11:37:16.001Z</time></trkpt><trkpt lat="42.19290407231824" lon="14.22093790120878"><ele>560.6666666666667</ele><time>2026-05-01T11:37:17.001Z</time></trkpt><trkpt lat="42.192827782997576" lon="14.220914783498875"><ele>563.0</ele><time>2026-05-01T11:37:18.001Z</time></trkpt><trkpt lat="42.19274500493857" lon="14.220930314511325"><ele>565.3333333333334</ele><time>2026-05-01T11:37:19.001Z</time></trkpt><trkpt lat="42.192665795182904" lon="14.220906824861308"><ele>567.6666666666666</ele><time>2026-05-01T11:37:20.001Z</time></trkpt><trkpt lat="42.19256447195284" lon="14.220875606840945"><ele>570.0</ele><time>2026-05-01T11:37:22.001Z</time></trkpt><trkpt lat="42.192496240321326" lon="14.220869261723236"><ele>570.0</ele><time>2026-05-01T11:37:24.001Z</time></trkpt><trkpt lat="42.19242430640107" lon="14.220871255866069"><ele>570.0</ele><time>2026-05-01T11:37:34.999Z</time></trkpt><trkpt lat="42.192327669808876" lon="14.220809969762199"><ele>570.0</ele><time>2026-05-01T11:37:36.999Z</time></trkpt><trkpt lat="42.192259931301834" lon="14.22075357632755"><ele>570.0</ele><time>2026-05-01T11:37:37.999Z</time></trkpt><trkpt lat="42.19217701404926" lon="14.220788727338828"><ele>570.0</ele><time>2026-05-01T11:37:38.999Z</time></trkpt><trkpt lat="42.19210118416961" lon="14.220769486804887"><ele>570.0</ele><time>2026-05-01T11:37:39.999Z</time></trkpt><trkpt lat="42.19203238932182" lon="14.22072049365447"><ele>570.6666666666666</ele><time>2026-05-01T11:37:40.999Z</time></trkpt><trkpt lat="42.19194913968963" lon="14.220698723910955"><ele>571.3333333333334</ele><time>2026-05-01T11:37:41.999Z</time></trkpt><trkpt lat="42.191874229325855" lon="14.220666830224102"><ele>572.0</ele><time>2026-05-01T11:37:42.999Z</time></trkpt><trkpt lat="42.19179351169572" lon="14.220664747186422"><ele>572.6666666666667</ele><time>2026-05-01T11:37:43.999Z</time></trkpt><trkpt lat="42.191704010219574" lon="14.220678031998522"><ele>573.3333333333334</ele><time>2026-05-01T11:37:44.999Z</time></trkpt><trkpt lat="42.19162749773195" lon="14.220670403073697"><ele>574.0</ele><time>2026-05-01T11:37:45.999Z</time></trkpt><trkpt lat="42.19156273305542" lon="14.220679686869886"><ele>574.0</ele><time>2026-05-01T11:37:46.999Z</time></trkpt><trkpt lat="42.19150086692774" lon="14.220649083316328"><ele>568.0</ele><time>2026-05-01T11:37:47.999Z</time></trkpt><trkpt lat="42.191434773288734" lon="14.220627696273574"><ele>568.0</ele><time>2026-05-01T11:37:48.999Z</time></trkpt><trkpt lat="42.19136766581701" lon="14.220635637490004"><ele>568.0</ele><time>2026-05-01T11:37:49.999Z</time></trkpt><trkpt lat="42.191259841781886" lon="14.220613618406905"><ele>568.0</ele><time>2026-05-01T11:37:51.999Z</time></trkpt><trkpt lat="42.1911733949238" lon="14.220594498483877"><ele>568.0</ele><time>2026-05-01T11:37:54.999Z</time></trkpt><trkpt lat="42.1911733949238" lon="14.220594498483877"><ele>568.0</ele><time>2026-05-01T11:37:54.999Z</time></trkpt></trkseg></trk></gpx>